Wetterdaten: Donnerstag, 22.01.2015
Datum Zeit Temp. Aussen +5cm Feuchte Auss Luftdruck Regen Sonnenschein Regendauer Solar Windben
22.01.2015 00:00 0,6 C 0,0 C 85 % 1013,0 hPa 0,0 l/m 0 min 0 min 0 W/m 14,6 km/h (3 Bft)
22.01.2015 00:02 0,6 C 0,0 C 85 % 1013,0 hPa 0,0 l/m 0 min 0 min 0 W/m 6,3 km/h (2 Bft)
22.01.2015 00:06 0,7 C 0,0 C 85 % 1013,0 hPa 0,0 l/m 0 min 0 min 0 W/m 14,6 km/h (3 Bft)
22.01.2015 00:08 0,7 C 0,0 C 85 % 1013,0 hPa 0,0 l/m 0 min 0 min 0 W/m 6,3 km/h (2 Bft)
22.01.2015 00:10 0,7 C 0,0 C 85 % 1013,1 hPa 0,0 l/m 0 min 0 min 0 W/m 8,4 km/h (2 Bft)
22.01.2015 00:12 0,7 C 0,0 C 85 % 1013,0 hPa 0,0 l/m 0 min 0 min 0 W/m 16,7 km/h (3 Bft)
22.01.2015 00:14 0,7 C 0,0 C 85 % 1013,1 hPa 0,0 l/m 0 min 0 min 0 W/m 16,7 km/h (3 Bft)
22.01.2015 00:16 0,7 C 0,0 C 85 % 1013,1 hPa 0,0 l/m 0 min 0 min 0 W/m 18,8 km/h (3 Bft)
22.01.2015 00:18 0,7 C 0,0 C 85 % 1013,1 hPa 0,0 l/m 0 min 0 min 0 W/m 18,8 km/h (3 Bft)
22.01.2015 00:20 0,8 C 0,0 C 85 % 1013,1 hPa 0,0 l/m 0 min 0 min 0 W/m 20,9 km/h (4 Bft)
22.01.2015 00:22 0,8 C 0,0 C 85 % 1013,0 hPa 0,0 l/m 0 min 0 min 0 W/m 10,5 km/h (2 Bft)
22.01.2015 00:24 0,8 C 0,0 C 85 % 1013,1 hPa 0,0 l/m 0 min 0 min 0 W/m 12,6 km/h (3 Bft)
22.01.2015 00:26 0,8 C 0,0 C 85 % 1013,1 hPa 0,0 l/m 0 min 0 min 0 W/m 14,6 km/h (3 Bft)
22.01.2015 00:28 0,8 C 0,0 C 85 % 1013,0 hPa 0,0 l/m 0 min 0 min 0 W/m 14,6 km/h (3 Bft)
22.01.2015 00:30 0,8 C 0,0 C 85 % 1013,0 hPa 0,0 l/m 0 min 0 min 0 W/m 10,5 km/h (2 Bft)
22.01.2015 00:32 0,8 C 0,0 C 85 % 1013,0 hPa 0,0 l/m 0 min 0 min 0 W/m 14,6 km/h (3 Bft)
22.01.2015 00:34 0,8 C 0,0 C 85 % 1013,0 hPa 0,0 l/m 0 min 0 min 0 W/m 14,6 km/h (3 Bft)
22.01.2015 00:36 0,8 C 0,0 C 85 % 1013,0 hPa 0,0 l/m 0 min 0 min 0 W/m 16,7 km/h (3 Bft)
22.01.2015 00:38 0,8 C 0,0 C 85 % 1013,1 hPa 0,0 l/m 0 min 0 min 0 W/m 12,6 km/h (3 Bft)
22.01.2015 00:40 0,8 C 0,0 C 85 % 1013,1 hPa 0,0 l/m 0 min 0 min 0 W/m 14,6 km/h (3 Bft)
22.01.2015 00:42 0,8 C 0,0 C 85 % 1013,1 hPa 0,0 l/m 0 min 0 min 0 W/m 14,6 km/h (3 Bft)
22.01.2015 00:44 0,8 C 0,0 C 85 % 1013,1 hPa 0,0 l/m 0 min 0 min 0 W/m 16,7 km/h (3 Bft)
22.01.2015 00:46 0,8 C 0,0 C 85 % 1013,2 hPa 0,0 l/m 0 min 0 min 0 W/m 18,8 km/h (3 Bft)
22.01.2015 00:48 0,8 C 0,0 C 85 % 1013,1 hPa 0,0 l/m 0 min 0 min 0 W/m 16,7 km/h (3 Bft)
22.01.2015 00:50 0,8 C 0,0 C 85 % 1013,1 hPa 0,0 l/m 0 min 0 min 0 W/m 16,7 km/h (3 Bft)
22.01.2015 00:52 0,8 C 0,0 C 85 % 1013,1 hPa 0,0 l/m 0 min 0 min 0 W/m 6,3 km/h (2 Bft)
22.01.2015 00:54 0,8 C 0,0 C 85 % 1013,1 hPa 0,0 l/m 0 min 0 min 0 W/m 8,4 km/h (2 Bft)
22.01.2015 00:56 0,8 C 0,0 C 85 % 1013,1 hPa 0,0 l/m 0 min 0 min 0 W/m 14,6 km/h (3 Bft)
22.01.2015 00:58 0,8 C 0,0 C 85 % 1013,2 hPa 0,0 l/m 0 min 0 min 0 W/m 10,5 km/h (2 Bft)
22.01.2015 01:00 0,8 C 0,0 C 85 % 1013,1 hPa 0,0 l/m 0 min 0 min 0 W/m 10,5 km/h (2 Bft)
22.01.2015 01:02 0,8 C 0,0 C 85 % 1013,2 hPa 0,0 l/m 0 min 0 min 0 W/m 10,5 km/h (2 Bft)
22.01.2015 01:04 0,8 C 0,0 C 85 % 1013,2 hPa 0,0 l/m 0 min 0 min 0 W/m 12,6 km/h (3 Bft)
22.01.2015 01:06 0,8 C 0,0 C 85 % 1013,2 hPa 0,0 l/m 0 min 0 min 0 W/m 14,6 km/h (3 Bft)
22.01.2015 01:08 0,8 C 0,0 C 85 % 1013,3 hPa 0,0 l/m 0 min 0 min 0 W/m 14,6 km/h (3 Bft)
22.01.2015 01:10 0,8 C 0,0 C 85 % 1013,2 hPa 0,0 l/m 0 min 0 min 0 W/m 16,7 km/h (3 Bft)
22.01.2015 01:12 0,8 C 0,0 C 85 % 1013,2 hPa 0,0 l/m 0 min 0 min 0 W/m 14,6 km/h (3 Bft)
22.01.2015 01:14 0,8 C -0,6 C 85 % 1013,2 hPa 0,0 l/m 0 min 0 min 0 W/m 10,5 km/h (2 Bft)
22.01.2015 01:16 0,8 C -0,6 C 85 % 1013,2 hPa 0,0 l/m 0 min 0 min 0 W/m 12,6 km/h (3 Bft)
22.01.2015 01:18 0,8 C -0,6 C 85 % 1013,2 hPa 0,0 l/m 0 min 0 min 0 W/m 12,6 km/h (3 Bft)
22.01.2015 01:20 0,8 C -0,6 C 85 % 1013,2 hPa 0,0 l/m 0 min 0 min 0 W/m 14,6 km/h (3 Bft)
22.01.2015 01:22 0,8 C -0,6 C 85 % 1013,2 hPa 0,0 l/m 0 min 0 min 0 W/m 10,5 km/h (2 Bft)
22.01.2015 01:24 0,8 C -0,6 C 85 % 1013,2 hPa 0,0 l/m 0 min 0 min 0 W/m 14,6 km/h (3 Bft)
22.01.2015 01:26 0,8 C -0,6 C 85 % 1013,2 hPa 0,0 l/m 0 min 0 min 0 W/m 10,5 km/h (2 Bft)
22.01.2015 01:28 0,8 C -0,6 C 85 % 1013,2 hPa 0,0 l/m 0 min 0 min 0 W/m 16,7 km/h (3 Bft)
22.01.2015 01:30 0,8 C -0,6 C 85 % 1013,2 hPa 0,0 l/m 0 min 0 min 0 W/m 14,6 km/h (3 Bft)
22.01.2015 01:32 0,8 C -0,6 C 85 % 1013,2 hPa 0,0 l/m 0 min 0 min 0 W/m 14,6 km/h (3 Bft)
22.01.2015 01:34 0,7 C -0,6 C 85 % 1013,2 hPa 0,0 l/m 0 min 0 min 0 W/m 16,7 km/h (3 Bft)
22.01.2015 01:36 0,7 C -0,6 C 85 % 1013,2 hPa 0,0 l/m 0 min 0 min 0 W/m 18,8 km/h (3 Bft)
22.01.2015 01:38 0,7 C -0,6 C 85 % 1013,2 hPa 0,0 l/m 0 min 0 min 0 W/m 12,6 km/h (3 Bft)
22.01.2015 01:40 0,7 C -0,6 C 85 % 1013,2 hPa 0,0 l/m 0 min 0 min 0 W/m 14,6 km/h (3 Bft)
22.01.2015 01:42 0,7 C -0,6 C 86 % 1013,2 hPa 0,0 l/m 0 min 0 min 0 W/m 18,8 km/h (3 Bft)
22.01.2015 01:44 0,7 C -0,6 C 86 % 1013,2 hPa 0,0 l/m 0 min 0 min 0 W/m 10,5 km/h (2 Bft)
22.01.2015 01:46 0,7 C -0,6 C 86 % 1013,2 hPa 0,0 l/m 0 min 0 min 0 W/m 14,6 km/h (3 Bft)
22.01.2015 01:48 0,7 C -0,6 C 86 % 1013,2 hPa 0,0 l/m 0 min 0 min 0 W/m 10,5 km/h (2 Bft)
22.01.2015 01:50 0,7 C -0,6 C 86 % 1013,2 hPa 0,0 l/m 0 min 0 min 0 W/m 8,4 km/h (2 Bft)
22.01.2015 01:52 0,7 C -0,6 C 86 % 1013,2 hPa 0,0 l/m 0 min 0 min 0 W/m 10,5 km/h (2 Bft)
22.01.2015 01:54 0,7 C -0,6 C 86 % 1013,2 hPa 0,0 l/m 0 min 0 min 0 W/m 14,6 km/h (3 Bft)
22.01.2015 01:56 0,7 C -0,6 C 86 % 1013,2 hPa 0,0 l/m 0 min 0 min 0 W/m 12,6 km/h (3 Bft)
22.01.2015 01:58 0,7 C -0,6 C 86 % 1013,2 hPa 0,0 l/m 0 min 0 min 0 W/m 14,6 km/h (3 Bft)
22.01.2015 02:00 0,7 C -0,6 C 86 % 1013,2 hPa 0,0 l/m 0 min 0 min 0 W/m 16,7 km/h (3 Bft)
22.01.2015 02:02 0,7 C -0,6 C 86 % 1013,2 hPa 0,0 l/m 0 min 0 min 0 W/m 16,7 km/h (3 Bft)
22.01.2015 02:04 0,7 C -0,6 C 86 % 1013,2 hPa 0,0 l/m 0 min 0 min 0 W/m 14,6 km/h (3 Bft)
22.01.2015 02:06 0,7 C -0,6 C 86 % 1013,1 hPa 0,0 l/m 0 min 0 min 0 W/m 10,5 km/h (2 Bft)
22.01.2015 02:08 0,7 C -0,6 C 86 % 1013,1 hPa 0,0 l/m 0 min 0 min 0 W/m 14,6 km/h (3 Bft)
22.01.2015 02:10 0,7 C -0,6 C 86 % 1013,1 hPa 0,0 l/m 0 min 0 min 0 W/m 18,8 km/h (3 Bft)
22.01.2015 02:12 0,7 C -0,6 C 86 % 1013,1 hPa 0,0 l/m 0 min 0 min 0 W/m 14,6 km/h (3 Bft)
22.01.2015 02:14 0,7 C -0,6 C 86 % 1013,1 hPa 0,0 l/m 0 min 0 min 0 W/m 12,6 km/h (3 Bft)
22.01.2015 02:16 0,7 C -0,6 C 86 % 1013,1 hPa 0,0 l/m 0 min 0 min 0 W/m 10,5 km/h (2 Bft)
22.01.2015 02:18 0,6 C -0,6 C 86 % 1013,2 hPa 0,0 l/m 0 min 0 min 0 W/m 12,6 km/h (3 Bft)
22.01.2015 02:20 0,6 C -0,6 C 86 % 1013,1 hPa 0,0 l/m 0 min 0 min 0 W/m 14,6 km/h (3 Bft)
22.01.2015 02:22 0,6 C -0,6 C 86 % 1013,2 hPa 0,0 l/m 0 min 0 min 0 W/m 14,6 km/h (3 Bft)
22.01.2015 02:24 0,6 C -0,6 C 86 % 1013,2 hPa 0,0 l/m 0 min 0 min 0 W/m 16,7 km/h (3 Bft)
22.01.2015 02:26 0,6 C -0,6 C 87 % 1013,1 hPa 0,0 l/m 0 min 0 min 0 W/m 12,6 km/h (3 Bft)
22.01.2015 02:28 0,6 C -0,6 C 87 % 1013,1 hPa 0,0 l/m 0 min 0 min 0 W/m 14,6 km/h (3 Bft)
22.01.2015 02:30 0,5 C -0,6 C 87 % 1013,2 hPa 0,0 l/m 0 min 0 min 0 W/m 16,7 km/h (3 Bft)
22.01.2015 02:32 0,5 C -0,6 C 87 % 1013,2 hPa 0,0 l/m 0 min 0 min 0 W/m 14,6 km/h (3 Bft)
22.01.2015 02:34 0,5 C -0,6 C 87 % 1013,3 hPa 0,0 l/m 0 min 0 min 0 W/m 10,5 km/h (2 Bft)
22.01.2015 02:36 0,5 C -0,6 C 87 % 1013,3 hPa 0,0 l/m 0 min 0 min 0 W/m 14,6 km/h (3 Bft)
22.01.2015 02:38 0,5 C -0,6 C 87 % 1013,3 hPa 0,0 l/m 0 min 0 min 0 W/m 10,5 km/h (2 Bft)
22.01.2015 02:40 0,5 C -0,6 C 87 % 1013,3 hPa 0,0 l/m 0 min 0 min 0 W/m 14,6 km/h (3 Bft)
22.01.2015 02:42 0,5 C -0,6 C 87 % 1013,4 hPa 0,0 l/m 0 min 0 min 0 W/m 6,3 km/h (2 Bft)
22.01.2015 02:44 0,5 C -1,1 C 87 % 1013,4 hPa 0,0 l/m 0 min 0 min 0 W/m 6,3 km/h (2 Bft)
22.01.2015 02:46 0,5 C -1,1 C 87 % 1013,4 hPa 0,0 l/m 0 min 0 min 0 W/m 10,5 km/h (2 Bft)
22.01.2015 02:48 0,5 C -1,1 C 87 % 1013,3 hPa 0,0 l/m 0 min 0 min 0 W/m 10,5 km/h (2 Bft)
22.01.2015 02:50 0,5 C -1,1 C 87 % 1013,3 hPa 0,0 l/m 0 min 0 min 0 W/m 10,5 km/h (2 Bft)
22.01.2015 02:52 0,5 C -1,1 C 87 % 1013,3 hPa 0,0 l/m 0 min 0 min 0 W/m 16,7 km/h (3 Bft)
22.01.2015 02:54 0,5 C -1,1 C 87 % 1013,3 hPa 0,0 l/m 0 min 0 min 0 W/m 16,7 km/h (3 Bft)
22.01.2015 02:56 0,5 C -1,1 C 87 % 1013,3 hPa 0,0 l/m 0 min 0 min 0 W/m 16,7 km/h (3 Bft)
22.01.2015 02:58 0,4 C -1,1 C 87 % 1013,4 hPa 0,0 l/m 0 min 0 min 0 W/m 14,6 km/h (3 Bft)
22.01.2015 03:00 0,4 C -1,1 C 87 % 1013,4 hPa 0,0 l/m 0 min 0 min 0 W/m 14,6 km/h (3 Bft)
22.01.2015 03:02 0,4 C -1,1 C 87 % 1013,4 hPa 0,0 l/m 0 min 0 min 0 W/m 10,5 km/h (2 Bft)
22.01.2015 03:04 0,4 C -1,1 C 87 % 1013,4 hPa 0,0 l/m 0 min 0 min 0 W/m 12,6 km/h (3 Bft)
22.01.2015 03:06 0,4 C -1,1 C 87 % 1013,4 hPa 0,0 l/m 0 min 0 min 0 W/m 10,5 km/h (2 Bft)
22.01.2015 03:08 0,4 C -1,1 C 87 % 1013,4 hPa 0,0 l/m 0 min 0 min 0 W/m 12,6 km/h (3 Bft)
22.01.2015 03:10 0,3 C -1,1 C 87 % 1013,4 hPa 0,0 l/m 0 min 0 min 0 W/m 10,5 km/h (2 Bft)
22.01.2015 03:12 0,3 C -1,1 C 87 % 1013,5 hPa 0,0 l/m 0 min 0 min 0 W/m 8,4 km/h (2 Bft)
22.01.2015 03:14 0,3 C -1,1 C 87 % 1013,5 hPa 0,0 l/m 0 min 0 min 0 W/m 6,3 km/h (2 Bft)
22.01.2015 03:16 0,3 C -1,1 C 87 % 1013,5 hPa 0,0 l/m 0 min 0 min 0 W/m 10,5 km/h (2 Bft)
22.01.2015 03:18 0,3 C -1,1 C 87 % 1013,5 hPa 0,0 l/m 0 min 0 min 0 W/m 6,3 km/h (2 Bft)
22.01.2015 03:20 0,3 C -1,1 C 87 % 1013,5 hPa 0,0 l/m 0 min 0 min 0 W/m 8,4 km/h (2 Bft)
22.01.2015 03:22 0,2 C -1,1 C 87 % 1013,5 hPa 0,0 l/m 0 min 0 min 0 W/m 8,4 km/h (2 Bft)
22.01.2015 03:24 0,2 C -1,1 C 87 % 1013,5 hPa 0,0 l/m 0 min 0 min 0 W/m 8,4 km/h (2 Bft)
22.01.2015 03:26 0,2 C -1,1 C 87 % 1013,4 hPa 0,0 l/m 0 min 0 min 0 W/m 10,5 km/h (2 Bft)
22.01.2015 03:28 0,2 C -1,1 C 87 % 1013,5 hPa 0,0 l/m 0 min 0 min 0 W/m 14,6 km/h (3 Bft)
22.01.2015 03:30 0,2 C -1,1 C 87 % 1013,5 hPa 0,0 l/m 0 min 0 min 0 W/m 8,4 km/h (2 Bft)
22.01.2015 03:32 0,2 C -1,1 C 87 % 1013,5 hPa 0,0 l/m 0 min 0 min 0 W/m 8,4 km/h (2 Bft)
22.01.2015 03:34 0,2 C -1,1 C 88 % 1013,5 hPa 0,0 l/m 0 min 0 min 0 W/m 8,4 km/h (2 Bft)
22.01.2015 03:36 0,2 C -1,1 C 88 % 1013,6 hPa 0,0 l/m 0 min 0 min 0 W/m 8,4 km/h (2 Bft)
22.01.2015 03:38 0,1 C -1,1 C 88 % 1013,6 hPa 0,0 l/m 0 min 0 min 0 W/m 8,4 km/h (2 Bft)
22.01.2015 03:40 0,1 C -1,1 C 88 % 1013,6 hPa 0,0 l/m 0 min 0 min 0 W/m 10,5 km/h (2 Bft)
22.01.2015 03:42 0,1 C -1,7 C 88 % 1013,7 hPa 0,0 l/m 0 min 0 min 0 W/m 10,5 km/h (2 Bft)
22.01.2015 03:44 0,1 C -1,7 C 88 % 1013,6 hPa 0,0 l/m 0 min 0 min 0 W/m 10,5 km/h (2 Bft)
22.01.2015 03:46 0,1 C -1,1 C 88 % 1013,6 hPa 0,0 l/m 0 min 0 min 0 W/m 12,6 km/h (3 Bft)
22.01.2015 03:48 0,1 C -1,1 C 88 % 1013,6 hPa 0,0 l/m 0 min 0 min 0 W/m 8,4 km/h (2 Bft)
22.01.2015 03:50 0,1 C -1,7 C 88 % 1013,5 hPa 0,0 l/m 0 min 0 min 0 W/m 14,6 km/h (3 Bft)
22.01.2015 03:52 0,1 C -1,1 C 88 % 1013,5 hPa 0,0 l/m 0 min 0 min 0 W/m 12,6 km/h (3 Bft)
22.01.2015 03:54 0,0 C -1,1 C 88 % 1013,5 hPa 0,0 l/m 0 min 0 min 0 W/m 8,4 km/h (2 Bft)
22.01.2015 03:56 0,0 C -1,1 C 88 % 1013,5 hPa 0,0 l/m 0 min 0 min 0 W/m 10,5 km/h (2 Bft)
22.01.2015 03:58 0,0 C -1,1 C 88 % 1013,4 hPa 0,0 l/m 0 min 0 min 0 W/m 10,5 km/h (2 Bft)
22.01.2015 04:00 0,0 C -1,1 C 88 % 1013,4 hPa 0,0 l/m 0 min 0 min 0 W/m 6,3 km/h (2 Bft)
22.01.2015 04:02 0,0 C -1,1 C 88 % 1013,5 hPa 0,0 l/m 0 min 0 min 0 W/m 8,4 km/h (2 Bft)
22.01.2015 04:04 0,0 C -1,1 C 88 % 1013,5 hPa 0,0 l/m 0 min 0 min 0 W/m 10,5 km/h (2 Bft)
22.01.2015 04:06 -0,1 C -1,1 C 89 % 1013,6 hPa 0,0 l/m 0 min 0 min 0 W/m 10,5 km/h (2 Bft)
22.01.2015 04:08 -0,1 C -1,1 C 89 % 1013,5 hPa 0,0 l/m 0 min 0 min 0 W/m 10,5 km/h (2 Bft)
22.01.2015 04:10 -0,1 C -1,1 C 89 % 1013,5 hPa 0,0 l/m 0 min 0 min 0 W/m 8,4 km/h (2 Bft)
22.01.2015 04:12 -0,1 C -1,1 C 89 % 1013,5 hPa 0,0 l/m 0 min 0 min 0 W/m 10,5 km/h (2 Bft)
22.01.2015 04:14 -0,1 C -1,1 C 89 % 1013,5 hPa 0,0 l/m 0 min 0 min 0 W/m 10,5 km/h (2 Bft)
22.01.2015 04:16 -0,1 C -1,1 C 89 % 1013,5 hPa 0,0 l/m 0 min 0 min 0 W/m 10,5 km/h (2 Bft)
22.01.2015 04:18 -0,1 C -1,1 C 89 % 1013,5 hPa 0,0 l/m 0 min 0 min 0 W/m 14,6 km/h (3 Bft)
22.01.2015 04:20 -0,1 C -1,1 C 89 % 1013,5 hPa 0,0 l/m 0 min 0 min 0 W/m 14,6 km/h (3 Bft)
22.01.2015 04:22 -0,1 C -1,1 C 89 % 1013,5 hPa 0,0 l/m 0 min 0 min 0 W/m 14,6 km/h (3 Bft)
22.01.2015 04:24 -0,1 C -1,1 C 89 % 1013,4 hPa 0,0 l/m 0 min 0 min 0 W/m 16,7 km/h (3 Bft)
22.01.2015 04:26 -0,1 C -1,1 C 89 % 1013,4 hPa 0,0 l/m 0 min 0 min 0 W/m 12,6 km/h (3 Bft)
22.01.2015 04:28 -0,1 C -1,1 C 89 % 1013,4 hPa 0,0 l/m 0 min 0 min 0 W/m 14,6 km/h (3 Bft)
22.01.2015 04:30 -0,1 C -1,1 C 89 % 1013,4 hPa 0,0 l/m 0 min 0 min 0 W/m 16,7 km/h (3 Bft)
22.01.2015 04:32 -0,1 C -1,1 C 89 % 1013,4 hPa 0,0 l/m 0 min 0 min 0 W/m 14,6 km/h (3 Bft)
22.01.2015 04:34 -0,1 C -1,1 C 89 % 1013,4 hPa 0,0 l/m 0 min 0 min 0 W/m 16,7 km/h (3 Bft)
22.01.2015 04:36 -0,1 C -1,1 C 89 % 1013,4 hPa 0,0 l/m 0 min 0 min 0 W/m 8,4 km/h (2 Bft)
22.01.2015 04:38 -0,1 C -1,1 C 89 % 1013,4 hPa 0,0 l/m 0 min 0 min 0 W/m 12,6 km/h (3 Bft)
22.01.2015 04:40 -0,1 C -1,1 C 89 % 1013,4 hPa 0,0 l/m 0 min 0 min 0 W/m 12,6 km/h (3 Bft)
22.01.2015 04:42 -0,1 C -1,1 C 89 % 1013,3 hPa 0,0 l/m 0 min 0 min 0 W/m 10,5 km/h (2 Bft)
22.01.2015 04:44 -0,1 C -1,1 C 89 % 1013,4 hPa 0,0 l/m 0 min 0 min 0 W/m 14,6 km/h (3 Bft)
22.01.2015 04:46 -0,1 C -1,1 C 89 % 1013,4 hPa 0,0 l/m 0 min 0 min 0 W/m 18,8 km/h (3 Bft)
22.01.2015 04:48 -0,1 C -1,1 C 89 % 1013,4 hPa 0,0 l/m 0 min 0 min 0 W/m 10,5 km/h (2 Bft)
22.01.2015 04:50 -0,1 C -1,1 C 89 % 1013,4 hPa 0,0 l/m 0 min 0 min 0 W/m 14,6 km/h (3 Bft)
22.01.2015 04:52 -0,1 C -1,1 C 89 % 1013,4 hPa 0,0 l/m 0 min 0 min 0 W/m 14,6 km/h (3 Bft)
22.01.2015 04:54 -0,1 C -1,1 C 89 % 1013,3 hPa 0,0 l/m 0 min 0 min 0 W/m 18,8 km/h (3 Bft)
22.01.2015 04:56 -0,1 C -1,1 C 89 % 1013,4 hPa 0,0 l/m 0 min 0 min 0 W/m 8,4 km/h (2 Bft)
22.01.2015 04:58 -0,1 C -1,1 C 89 % 1013,3 hPa 0,0 l/m 0 min 0 min 0 W/m 14,6 km/h (3 Bft)
22.01.2015 05:00 -0,1 C -1,1 C 89 % 1013,3 hPa 0,0 l/m 0 min 0 min 0 W/m 12,6 km/h (3 Bft)
22.01.2015 05:02 -0,1 C -1,1 C 89 % 1013,4 hPa 0,0 l/m 0 min 0 min 0 W/m 16,7 km/h (3 Bft)
22.01.2015 05:04 -0,1 C -1,1 C 89 % 1013,4 hPa 0,0 l/m 0 min 0 min 0 W/m 18,8 km/h (3 Bft)
22.01.2015 05:06 -0,1 C -1,1 C 89 % 1013,3 hPa 0,0 l/m 0 min 0 min 0 W/m 18,8 km/h (3 Bft)
22.01.2015 05:08 -0,1 C -1,1 C 89 % 1013,3 hPa 0,0 l/m 0 min 0 min 0 W/m 14,6 km/h (3 Bft)
22.01.2015 05:10 -0,1 C -1,1 C 89 % 1013,3 hPa 0,0 l/m 0 min 0 min 0 W/m 18,8 km/h (3 Bft)
22.01.2015 05:12 -0,1 C -1,1 C 89 % 1013,3 hPa 0,0 l/m 0 min 0 min 0 W/m 14,6 km/h (3 Bft)
22.01.2015 05:14 -0,2 C -1,1 C 88 % 1013,3 hPa 0,0 l/m 0 min 0 min 0 W/m 16,7 km/h (3 Bft)
22.01.2015 05:16 -0,2 C -1,1 C 88 % 1013,3 hPa 0,0 l/m 0 min 0 min 0 W/m 16,7 km/h (3 Bft)
22.01.2015 05:18 -0,2 C -1,1 C 88 % 1013,4 hPa 0,0 l/m 0 min 0 min 0 W/m 16,7 km/h (3 Bft)
22.01.2015 05:20 -0,2 C -1,1 C 88 % 1013,4 hPa 0,0 l/m 0 min 0 min 0 W/m 18,8 km/h (3 Bft)
22.01.2015 05:22 -0,2 C -1,1 C 88 % 1013,4 hPa 0,0 l/m 0 min 0 min 0 W/m 16,7 km/h (3 Bft)
22.01.2015 05:24 -0,2 C -1,1 C 88 % 1013,4 hPa 0,0 l/m 0 min 0 min 0 W/m 10,5 km/h (2 Bft)
22.01.2015 05:26 -0,2 C -1,1 C 88 % 1013,3 hPa 0,0 l/m 0 min 0 min 0 W/m 10,5 km/h (2 Bft)
22.01.2015 05:28 -0,2 C -1,1 C 88 % 1013,3 hPa 0,0 l/m 0 min 0 min 0 W/m 10,5 km/h (2 Bft)
22.01.2015 05:30 -0,2 C -1,1 C 88 % 1013,4 hPa 0,0 l/m 0 min 0 min 0 W/m 14,6 km/h (3 Bft)
22.01.2015 05:32 -0,2 C -1,1 C 88 % 1013,5 hPa 0,0 l/m 0 min 0 min 0 W/m 12,6 km/h (3 Bft)
22.01.2015 05:34 -0,2 C -1,1 C 88 % 1013,5 hPa 0,0 l/m 0 min 0 min 0 W/m 12,6 km/h (3 Bft)
22.01.2015 05:36 -0,2 C -1,1 C 88 % 1013,7 hPa 0,0 l/m 0 min 0 min 0 W/m 10,5 km/h (2 Bft)
22.01.2015 05:38 -0,2 C -1,1 C 88 % 1013,6 hPa 0,0 l/m 0 min 0 min 0 W/m 12,6 km/h (3 Bft)
22.01.2015 05:40 -0,2 C -1,1 C 88 % 1013,6 hPa 0,0 l/m 0 min 0 min 0 W/m 10,5 km/h (2 Bft)
22.01.2015 05:42 -0,2 C -1,1 C 88 % 1013,6 hPa 0,0 l/m 0 min 0 min 0 W/m 12,6 km/h (3 Bft)
22.01.2015 05:44 -0,2 C -1,1 C 88 % 1013,5 hPa 0,0 l/m 0 min 0 min 0 W/m 14,6 km/h (3 Bft)
22.01.2015 05:46 -0,2 C -1,1 C 88 % 1013,6 hPa 0,0 l/m 0 min 0 min 0 W/m 14,6 km/h (3 Bft)
22.01.2015 05:48 -0,2 C -1,1 C 88 % 1013,6 hPa 0,0 l/m 0 min 0 min 0 W/m 14,6 km/h (3 Bft)
22.01.2015 05:50 -0,2 C -1,1 C 88 % 1013,7 hPa 0,0 l/m 0 min 0 min 0 W/m 14,6 km/h (3 Bft)
22.01.2015 05:52 -0,2 C -1,1 C 88 % 1013,7 hPa 0,0 l/m 0 min 0 min 0 W/m 10,5 km/h (2 Bft)
22.01.2015 05:54 -0,2 C -1,1 C 88 % 1013,8 hPa 0,0 l/m 0 min 0 min 0 W/m 10,5 km/h (2 Bft)
22.01.2015 05:56 -0,2 C -1,1 C 88 % 1013,7 hPa 0,0 l/m 0 min 0 min 0 W/m 10,5 km/h (2 Bft)
22.01.2015 05:58 -0,2 C -1,1 C 88 % 1013,6 hPa 0,0 l/m 0 min 0 min 0 W/m 10,5 km/h (2 Bft)
22.01.2015 06:00 -0,2 C -1,1 C 88 % 1013,7 hPa 0,0 l/m 0 min 0 min 0 W/m 10,5 km/h (2 Bft)
22.01.2015 06:02 -0,2 C -1,1 C 88 % 1013,7 hPa 0,0 l/m 0 min 0 min 0 W/m 10,5 km/h (2 Bft)
22.01.2015 06:06 -0,2 C -1,1 C 88 % 1013,8 hPa 0,0 l/m 0 min 0 min 0 W/m 8,4 km/h (2 Bft)
22.01.2015 06:08 -0,2 C -1,1 C 88 % 1013,7 hPa 0,0 l/m 0 min 0 min 0 W/m 8,4 km/h (2 Bft)
22.01.2015 06:10 -0,2 C -1,1 C 88 % 1013,7 hPa 0,0 l/m 0 min 0 min 0 W/m 8,4 km/h (2 Bft)
22.01.2015 06:12 -0,2 C -1,1 C 88 % 1013,8 hPa 0,0 l/m 0 min 0 min 0 W/m 8,4 km/h (2 Bft)
22.01.2015 06:14 -0,2 C -1,1 C 88 % 1013,9 hPa 0,0 l/m 0 min 0 min 0 W/m 6,3 km/h (2 Bft)
22.01.2015 06:16 -0,2 C -1,7 C 88 % 1013,7 hPa 0,0 l/m 0 min 0 min 0 W/m 8,4 km/h (2 Bft)
22.01.2015 06:18 -0,2 C -1,7 C 88 % 1013,8 hPa 0,0 l/m 0 min 0 min 0 W/m 10,5 km/h (2 Bft)
22.01.2015 06:20 -0,3 C -1,7 C 88 % 1013,7 hPa 0,0 l/m 0 min 0 min 0 W/m 10,5 km/h (2 Bft)
22.01.2015 06:22 -0,3 C -1,7 C 88 % 1013,7 hPa 0,0 l/m 0 min 0 min 0 W/m 12,6 km/h (3 Bft)
22.01.2015 06:24 -0,3 C -1,7 C 88 % 1013,8 hPa 0,0 l/m 0 min 0 min 0 W/m 10,5 km/h (2 Bft)
22.01.2015 06:26 -0,3 C -1,7 C 88 % 1013,9 hPa 0,0 l/m 0 min 0 min 0 W/m 12,6 km/h (3 Bft)
22.01.2015 06:28 -0,3 C -1,7 C 88 % 1014,0 hPa 0,0 l/m 0 min 0 min 0 W/m 10,5 km/h (2 Bft)
22.01.2015 06:30 -0,3 C -1,7 C 88 % 1014,1 hPa 0,0 l/m 0 min 0 min 0 W/m 12,6 km/h (3 Bft)
22.01.2015 06:32 -0,3 C -1,7 C 88 % 1014,1 hPa 0,0 l/m 0 min 0 min 0 W/m 10,5 km/h (2 Bft)
22.01.2015 06:34 -0,3 C -1,7 C 88 % 1014,1 hPa 0,0 l/m 0 min 0 min 0 W/m 8,4 km/h (2 Bft)
22.01.2015 06:36 -0,3 C -1,7 C 88 % 1014,2 hPa 0,0 l/m 0 min 0 min 0 W/m 6,3 km/h (2 Bft)
22.01.2015 06:38 -0,3 C -1,7 C 88 % 1014,1 hPa 0,0 l/m 0 min 0 min 0 W/m 8,4 km/h (2 Bft)
22.01.2015 06:40 -0,4 C -1,7 C 88 % 1014,2 hPa 0,0 l/m 0 min 0 min 0 W/m 12,6 km/h (3 Bft)
22.01.2015 06:42 -0,4 C -1,7 C 88 % 1014,2 hPa 0,0 l/m 0 min 0 min 0 W/m 10,5 km/h (2 Bft)
22.01.2015 06:44 -0,4 C -1,7 C 88 % 1014,2 hPa 0,0 l/m 0 min 0 min 0 W/m 6,3 km/h (2 Bft)
22.01.2015 06:46 -0,4 C -1,7 C 88 % 1014,2 hPa 0,0 l/m 0 min 0 min 0 W/m 6,3 km/h (2 Bft)
22.01.2015 06:48 -0,4 C -1,7 C 88 % 1014,2 hPa 0,0 l/m 0 min 0 min 0 W/m 8,4 km/h (2 Bft)
22.01.2015 06:50 -0,4 C -1,7 C 89 % 1014,2 hPa 0,0 l/m 0 min 0 min 0 W/m 10,5 km/h (2 Bft)
22.01.2015 06:52 -0,5 C -1,7 C 89 % 1014,2 hPa 0,0 l/m 0 min 0 min 0 W/m 8,4 km/h (2 Bft)
22.01.2015 06:54 -0,5 C -1,7 C 88 % 1014,2 hPa 0,0 l/m 0 min 0 min 0 W/m 4,2 km/h (1 Bft)
22.01.2015 06:56 -0,5 C -1,7 C 88 % 1014,2 hPa 0,0 l/m 0 min 0 min 0 W/m 18,8 km/h (3 Bft)
22.01.2015 06:58 -0,6 C -1,7 C 88 % 1014,2 hPa 0,0 l/m 0 min 0 min 0 W/m 16,7 km/h (3 Bft)
22.01.2015 07:00 -0,6 C -1,7 C 88 % 1014,3 hPa 0,0 l/m 0 min 0 min 0 W/m 14,6 km/h (3 Bft)
22.01.2015 07:02 -0,6 C -1,7 C 89 % 1014,3 hPa 0,0 l/m 0 min 0 min 0 W/m 10,5 km/h (2 Bft)
22.01.2015 07:04 -0,6 C -1,7 C 89 % 1014,3 hPa 0,0 l/m 0 min 0 min 0 W/m 10,5 km/h (2 Bft)
22.01.2015 07:06 -0,6 C -1,7 C 89 % 1014,3 hPa 0,0 l/m 0 min 0 min 0 W/m 12,6 km/h (3 Bft)
22.01.2015 07:08 -0,6 C -1,7 C 89 % 1014,3 hPa 0,0 l/m 0 min 0 min 0 W/m 16,7 km/h (3 Bft)
22.01.2015 07:10 -0,6 C -1,7 C 89 % 1014,4 hPa 0,0 l/m 0 min 0 min 0 W/m 14,6 km/h (3 Bft)
22.01.2015 07:12 -0,6 C -1,7 C 89 % 1014,4 hPa 0,0 l/m 0 min 0 min 0 W/m 27,2 km/h (4 Bft)
22.01.2015 07:14 -0,6 C -1,7 C 89 % 1014,4 hPa 0,0 l/m 0 min 0 min 0 W/m 16,7 km/h (3 Bft)
22.01.2015 07:16 -0,7 C -1,7 C 89 % 1014,4 hPa 0,0 l/m 0 min 0 min 0 W/m 16,7 km/h (3 Bft)
22.01.2015 07:18 -0,7 C -1,7 C 89 % 1014,4 hPa 0,0 l/m 0 min 0 min 0 W/m 16,7 km/h (3 Bft)
22.01.2015 07:20 -0,7 C -1,7 C 89 % 1014,5 hPa 0,0 l/m 0 min 0 min 0 W/m 12,6 km/h (3 Bft)
22.01.2015 07:22 -0,7 C -1,7 C 89 % 1014,5 hPa 0,0 l/m 0 min 0 min 0 W/m 16,7 km/h (3 Bft)
22.01.2015 07:24 -0,7 C -1,7 C 89 % 1014,6 hPa 0,0 l/m 0 min 0 min 0 W/m 14,6 km/h (3 Bft)
22.01.2015 07:26 -0,7 C -1,7 C 89 % 1014,7 hPa 0,0 l/m 0 min 0 min 0 W/m 14,6 km/h (3 Bft)
22.01.2015 07:28 -0,7 C -1,7 C 89 % 1014,7 hPa 0,0 l/m 0 min 0 min 0 W/m 16,7 km/h (3 Bft)
22.01.2015 07:30 -0,7 C -1,7 C 89 % 1014,7 hPa 0,0 l/m 0 min 0 min 0 W/m 10,5 km/h (2 Bft)
22.01.2015 07:32 -0,7 C -1,7 C 89 % 1014,7 hPa 0,0 l/m 0 min 0 min 0 W/m 8,4 km/h (2 Bft)
22.01.2015 07:34 -0,7 C -1,7 C 89 % 1014,7 hPa 0,0 l/m 0 min 0 min 0 W/m 8,4 km/h (2 Bft)
22.01.2015 07:36 -0,7 C -1,7 C 89 % 1014,8 hPa 0,0 l/m 0 min 0 min 0 W/m 10,5 km/h (2 Bft)
22.01.2015 07:38 -0,7 C -1,7 C 89 % 1014,8 hPa 0,0 l/m 0 min 0 min 0 W/m 16,7 km/h (3 Bft)
22.01.2015 07:40 -0,6 C -1,7 C 89 % 1014,8 hPa 0,0 l/m 0 min 0 min 0 W/m 12,6 km/h (3 Bft)
22.01.2015 07:42 -0,7 C -1,7 C 89 % 1014,9 hPa 0,0 l/m 0 min 0 min 0 W/m 18,8 km/h (3 Bft)
22.01.2015 07:44 -0,6 C -1,7 C 89 % 1014,9 hPa 0,0 l/m 0 min 0 min 0 W/m 25,1 km/h (4 Bft)
22.01.2015 07:46 -0,6 C -1,7 C 89 % 1014,8 hPa 0,0 l/m 0 min 0 min 0 W/m 23,0 km/h (4 Bft)
22.01.2015 07:48 -0,6 C -1,7 C 89 % 1014,8 hPa 0,0 l/m 0 min 0 min 0 W/m 18,8 km/h (3 Bft)
22.01.2015 07:50 -0,6 C -1,7 C 89 % 1014,8 hPa 0,0 l/m 0 min 0 min 0 W/m 20,9 km/h (4 Bft)
22.01.2015 07:52 -0,6 C -1,7 C 89 % 1014,9 hPa 0,0 l/m 0 min 0 min 0 W/m 20,9 km/h (4 Bft)
22.01.2015 07:54 -0,6 C -1,7 C 89 % 1014,9 hPa 0,0 l/m 0 min 0 min 0 W/m 18,8 km/h (3 Bft)
22.01.2015 07:56 -0,6 C -1,7 C 89 % 1015,0 hPa 0,0 l/m 0 min 0 min 0 W/m 23,0 km/h (4 Bft)
22.01.2015 07:58 -0,6 C -1,7 C 89 % 1014,9 hPa 0,0 l/m 0 min 0 min 0 W/m 23,0 km/h (4 Bft)
22.01.2015 08:00 -0,6 C -1,7 C 89 % 1015,0 hPa 0,0 l/m 0 min 0 min 0 W/m 18,8 km/h (3 Bft)
22.01.2015 08:02 -0,6 C -1,7 C 89 % 1015,0 hPa 0,0 l/m 0 min 0 min 0 W/m 23,0 km/h (4 Bft)
22.01.2015 08:04 -0,6 C -1,7 C 89 % 1015,0 hPa 0,0 l/m 0 min 0 min 0 W/m 20,9 km/h (4 Bft)
22.01.2015 08:06 -0,6 C -1,7 C 89 % 1015,0 hPa 0,0 l/m 0 min 0 min 0 W/m 16,7 km/h (3 Bft)
22.01.2015 08:08 -0,6 C -1,7 C 89 % 1015,1 hPa 0,0 l/m 0 min 0 min 0 W/m 14,6 km/h (3 Bft)
22.01.2015 08:10 -0,6 C -1,7 C 89 % 1015,1 hPa 0,0 l/m 0 min 0 min 0 W/m 16,7 km/h (3 Bft)
22.01.2015 08:12 -0,6 C -1,7 C 89 % 1015,1 hPa 0,0 l/m 0 min 0 min 0 W/m 18,8 km/h (3 Bft)
22.01.2015 08:14 -0,6 C -1,7 C 89 % 1015,1 hPa 0,0 l/m 0 min 0 min 0 W/m 18,8 km/h (3 Bft)
22.01.2015 08:16 -0,6 C -1,7 C 89 % 1015,1 hPa 0,0 l/m 0 min 0 min 0 W/m 14,6 km/h (3 Bft)
22.01.2015 08:18 -0,6 C -1,7 C 89 % 1015,1 hPa 0,0 l/m 0 min 0 min 0 W/m 18,8 km/h (3 Bft)
22.01.2015 08:20 -0,6 C -1,7 C 89 % 1015,1 hPa 0,0 l/m 0 min 0 min 0 W/m 14,6 km/h (3 Bft)
22.01.2015 08:22 -0,6 C -1,7 C 89 % 1015,2 hPa 0,0 l/m 0 min 0 min 0 W/m 16,7 km/h (3 Bft)
22.01.2015 08:24 -0,6 C -1,7 C 89 % 1015,2 hPa 0,0 l/m 0 min 0 min 0 W/m 14,6 km/h (3 Bft)
22.01.2015 08:26 -0,6 C -1,7 C 89 % 1015,2 hPa 0,0 l/m 0 min 0 min 0 W/m 16,7 km/h (3 Bft)
22.01.2015 08:28 -0,6 C -1,7 C 89 % 1015,3 hPa 0,0 l/m 0 min 0 min 0 W/m 16,7 km/h (3 Bft)
22.01.2015 08:30 -0,6 C -1,7 C 89 % 1015,3 hPa 0,0 l/m 0 min 0 min 0 W/m 18,8 km/h (3 Bft)
22.01.2015 08:32 -0,6 C -1,7 C 89 % 1015,4 hPa 0,0 l/m 0 min 0 min 5 W/m 14,6 km/h (3 Bft)
22.01.2015 08:34 -0,6 C -1,7 C 89 % 1015,5 hPa 0,0 l/m 0 min 0 min 5 W/m 14,6 km/h (3 Bft)
22.01.2015 08:36 -0,6 C -1,7 C 89 % 1015,6 hPa 0,0 l/m 0 min 0 min 5 W/m 12,6 km/h (3 Bft)
22.01.2015 08:38 -0,6 C -1,1 C 89 % 1015,5 hPa 0,0 l/m 0 min 0 min 7 W/m 12,6 km/h (3 Bft)
22.01.2015 08:40 -0,6 C -1,1 C 89 % 1015,5 hPa 0,0 l/m 0 min 0 min 7 W/m 12,6 km/h (3 Bft)
22.01.2015 08:42 -0,6 C -1,1 C 89 % 1015,5 hPa 0,0 l/m 0 min 0 min 8 W/m 14,6 km/h (3 Bft)
22.01.2015 08:44 -0,6 C -1,1 C 89 % 1015,5 hPa 0,0 l/m 0 min 0 min 10 W/m 12,6 km/h (3 Bft)
22.01.2015 08:46 -0,6 C -1,1 C 89 % 1015,6 hPa 0,0 l/m 0 min 0 min 12 W/m 14,6 km/h (3 Bft)
22.01.2015 08:48 -0,6 C -1,1 C 89 % 1015,5 hPa 0,0 l/m 0 min 0 min 14 W/m 20,9 km/h (4 Bft)
22.01.2015 08:50 -0,6 C -1,1 C 89 % 1015,5 hPa 0,0 l/m 0 min 0 min 16 W/m 20,9 km/h (4 Bft)
22.01.2015 08:52 -0,6 C -1,7 C 89 % 1015,6 hPa 0,0 l/m 0 min 0 min 17 W/m 20,9 km/h (4 Bft)
22.01.2015 08:54 -0,6 C -1,7 C 89 % 1015,6 hPa 0,0 l/m 0 min 0 min 20 W/m 23,0 km/h (4 Bft)
22.01.2015 08:56 -0,6 C -1,7 C 89 % 1015,6 hPa 0,0 l/m 0 min 0 min 23 W/m 20,9 km/h (4 Bft)
22.01.2015 08:58 -0,6 C -1,7 C 89 % 1015,6 hPa 0,0 l/m 0 min 0 min 25 W/m 18,8 km/h (3 Bft)
22.01.2015 09:00 -0,6 C -1,7 C 89 % 1015,6 hPa 0,0 l/m 0 min 0 min 27 W/m 8,4 km/h (2 Bft)
22.01.2015 09:02 -0,6 C -1,7 C 89 % 1015,7 hPa 0,0 l/m 0 min 0 min 28 W/m 18,8 km/h (3 Bft)
22.01.2015 09:04 -0,6 C -1,7 C 89 % 1015,6 hPa 0,0 l/m 0 min 0 min 29 W/m 14,6 km/h (3 Bft)
22.01.2015 09:06 -0,6 C -1,7 C 89 % 1015,6 hPa 0,0 l/m 0 min 0 min 33 W/m 14,6 km/h (3 Bft)
22.01.2015 09:08 -0,6 C -1,7 C 89 % 1015,6 hPa 0,0 l/m 0 min 0 min 36 W/m 16,7 km/h (3 Bft)
22.01.2015 09:10 -0,5 C -1,1 C 89 % 1015,6 hPa 0,0 l/m 0 min 0 min 39 W/m 16,7 km/h (3 Bft)
22.01.2015 09:12 -0,5 C -1,1 C 89 % 1015,6 hPa 0,0 l/m 0 min 0 min 40 W/m 16,7 km/h (3 Bft)
22.01.2015 09:14 -0,5 C -1,1 C 89 % 1015,7 hPa 0,0 l/m 0 min 0 min 41 W/m 16,7 km/h (3 Bft)
22.01.2015 09:16 -0,5 C -1,1 C 89 % 1015,7 hPa 0,0 l/m 0 min 0 min 43 W/m 16,7 km/h (3 Bft)
22.01.2015 09:18 -0,5 C -1,1 C 89 % 1015,8 hPa 0,0 l/m 0 min 0 min 43 W/m 20,9 km/h (4 Bft)
22.01.2015 09:20 -0,5 C -1,1 C 89 % 1015,8 hPa 0,0 l/m 0 min 0 min 44 W/m 20,9 km/h (4 Bft)
22.01.2015 09:22 -0,4 C -1,1 C 89 % 1015,8 hPa 0,0 l/m 0 min 0 min 42 W/m 23,0 km/h (4 Bft)
22.01.2015 09:24 -0,4 C -1,1 C 89 % 1015,8 hPa 0,0 l/m 0 min 0 min 44 W/m 29,3 km/h (5 Bft)
22.01.2015 09:26 -0,4 C -1,1 C 89 % 1015,9 hPa 0,0 l/m 0 min 0 min 45 W/m 20,9 km/h (4 Bft)
22.01.2015 09:28 -0,4 C -1,1 C 89 % 1015,9 hPa 0,0 l/m 0 min 0 min 42 W/m 14,6 km/h (3 Bft)
22.01.2015 09:30 -0,4 C -1,1 C 89 % 1016,0 hPa 0,0 l/m 0 min 0 min 42 W/m 14,6 km/h (3 Bft)
22.01.2015 09:32 -0,4 C -0,6 C 89 % 1016,0 hPa 0,0 l/m 0 min 0 min 41 W/m 12,6 km/h (3 Bft)
22.01.2015 09:34 -0,3 C -0,6 C 89 % 1016,0 hPa 0,0 l/m 0 min 0 min 38 W/m 12,6 km/h (3 Bft)
22.01.2015 09:36 -0,3 C -0,6 C 89 % 1016,1 hPa 0,0 l/m 0 min 0 min 35 W/m 12,6 km/h (3 Bft)
22.01.2015 09:38 -0,3 C -0,6 C 89 % 1016,1 hPa 0,0 l/m 0 min 0 min 37 W/m 10,5 km/h (2 Bft)
22.01.2015 09:40 -0,3 C -0,6 C 89 % 1016,1 hPa 0,0 l/m 0 min 0 min 40 W/m 6,3 km/h (2 Bft)
22.01.2015 09:42 -0,3 C -0,6 C 89 % 1016,1 hPa 0,0 l/m 0 min 0 min 42 W/m 14,6 km/h (3 Bft)
22.01.2015 09:44 -0,2 C -0,6 C 89 % 1016,1 hPa 0,0 l/m 0 min 0 min 42 W/m 16,7 km/h (3 Bft)
22.01.2015 09:46 -0,2 C -0,6 C 89 % 1016,1 hPa 0,0 l/m 0 min 0 min 44 W/m 20,9 km/h (4 Bft)
22.01.2015 09:48 -0,2 C -0,6 C 89 % 1016,2 hPa 0,0 l/m 0 min 0 min 41 W/m 20,9 km/h (4 Bft)
22.01.2015 09:50 -0,2 C -0,6 C 89 % 1016,3 hPa 0,0 l/m 0 min 0 min 40 W/m 18,8 km/h (3 Bft)
22.01.2015 09:52 -0,2 C -0,6 C 89 % 1016,3 hPa 0,0 l/m 0 min 0 min 39 W/m 16,7 km/h (3 Bft)
22.01.2015 09:54 -0,2 C -0,6 C 89 % 1016,3 hPa 0,0 l/m 0 min 0 min 37 W/m 16,7 km/h (3 Bft)
22.01.2015 09:56 -0,1 C -0,6 C 89 % 1016,4 hPa 0,0 l/m 0 min 0 min 40 W/m 16,7 km/h (3 Bft)
22.01.2015 09:58 -0,1 C -0,6 C 88 % 1016,4 hPa 0,0 l/m 0 min 0 min 40 W/m 23,0 km/h (4 Bft)
22.01.2015 10:00 -0,1 C -0,6 C 88 % 1016,4 hPa 0,0 l/m 0 min 0 min 42 W/m 23,0 km/h (4 Bft)
22.01.2015 10:02 -0,1 C -0,6 C 88 % 1016,4 hPa 0,0 l/m 0 min 0 min 44 W/m 23,0 km/h (4 Bft)
22.01.2015 10:04 -0,1 C -0,6 C 88 % 1016,4 hPa 0,0 l/m 0 min 0 min 43 W/m 25,1 km/h (4 Bft)
22.01.2015 10:06 -0,1 C -0,6 C 88 % 1016,5 hPa 0,0 l/m 0 min 0 min 40 W/m 20,9 km/h (4 Bft)
22.01.2015 10:08 0,0 C -0,6 C 88 % 1016,5 hPa 0,0 l/m 0 min 0 min 42 W/m 27,2 km/h (4 Bft)
22.01.2015 10:10 0,0 C -0,6 C 88 % 1016,5 hPa 0,0 l/m 0 min 0 min 42 W/m 20,9 km/h (4 Bft)
22.01.2015 10:12 0,0 C -0,6 C 88 % 1016,5 hPa 0,0 l/m 0 min 0 min 42 W/m 18,8 km/h (3 Bft)
22.01.2015 10:14 0,0 C -0,6 C 88 % 1016,5 hPa 0,0 l/m 0 min 0 min 46 W/m 23,0 km/h (4 Bft)
22.01.2015 10:16 0,1 C -0,6 C 88 % 1016,5 hPa 0,0 l/m 0 min 0 min 51 W/m 25,1 km/h (4 Bft)
22.01.2015 10:18 0,1 C -0,6 C 88 % 1016,6 hPa 0,0 l/m 0 min 0 min 57 W/m 16,7 km/h (3 Bft)
22.01.2015 10:20 0,1 C -0,6 C 87 % 1016,5 hPa 0,0 l/m 0 min 0 min 54 W/m 20,9 km/h (4 Bft)
22.01.2015 10:22 0,1 C -0,6 C 87 % 1016,5 hPa 0,0 l/m 0 min 0 min 48 W/m 27,2 km/h (4 Bft)
22.01.2015 10:24 0,1 C -0,6 C 87 % 1016,5 hPa 0,0 l/m 0 min 0 min 52 W/m 16,7 km/h (3 Bft)
22.01.2015 10:26 0,1 C 0,0 C 87 % 1016,5 hPa 0,0 l/m 0 min 0 min 53 W/m 20,9 km/h (4 Bft)
22.01.2015 10:28 0,1 C 0,0 C 87 % 1016,5 hPa 0,0 l/m 0 min 0 min 50 W/m 23,0 km/h (4 Bft)
22.01.2015 10:30 0,2 C -0,6 C 87 % 1016,6 hPa 0,0 l/m 0 min 0 min 48 W/m 23,0 km/h (4 Bft)
22.01.2015 10:32 0,2 C -0,6 C 87 % 1016,6 hPa 0,0 l/m 0 min 0 min 45 W/m 23,0 km/h (4 Bft)
22.01.2015 10:34 0,2 C -0,6 C 86 % 1016,7 hPa 0,0 l/m 0 min 0 min 40 W/m 16,7 km/h (3 Bft)
22.01.2015 10:36 0,2 C -0,6 C 86 % 1016,6 hPa 0,0 l/m 0 min 0 min 39 W/m 23,0 km/h (4 Bft)
22.01.2015 10:38 0,2 C -0,6 C 86 % 1016,7 hPa 0,0 l/m 0 min 0 min 37 W/m 16,7 km/h (3 Bft)
22.01.2015 10:40 0,2 C -0,6 C 86 % 1016,7 hPa 0,0 l/m 0 min 0 min 37 W/m 23,0 km/h (4 Bft)
22.01.2015 10:42 0,2 C -0,6 C 86 % 1016,7 hPa 0,0 l/m 0 min 0 min 34 W/m 18,8 km/h (3 Bft)
22.01.2015 10:44 0,2 C -0,6 C 86 % 1016,6 hPa 0,0 l/m 0 min 0 min 33 W/m 25,1 km/h (4 Bft)
22.01.2015 10:46 0,2 C -0,6 C 86 % 1016,7 hPa 0,0 l/m 0 min 0 min 32 W/m 29,3 km/h (5 Bft)
22.01.2015 10:48 0,2 C -0,6 C 86 % 1016,7 hPa 0,0 l/m 0 min 0 min 30 W/m 18,8 km/h (3 Bft)
22.01.2015 10:50 0,2 C -0,6 C 86 % 1016,7 hPa 0,0 l/m 0 min 0 min 28 W/m 18,8 km/h (3 Bft)
22.01.2015 10:52 0,2 C -0,6 C 86 % 1016,9 hPa 0,0 l/m 0 min 0 min 28 W/m 16,7 km/h (3 Bft)
22.01.2015 10:54 0,2 C -0,6 C 86 % 1016,8 hPa 0,0 l/m 0 min 0 min 33 W/m 16,7 km/h (3 Bft)
22.01.2015 10:56 0,2 C -0,6 C 86 % 1016,8 hPa 0,0 l/m 0 min 0 min 37 W/m 18,8 km/h (3 Bft)
22.01.2015 10:58 0,2 C -0,6 C 86 % 1016,8 hPa 0,0 l/m 0 min 0 min 40 W/m 18,8 km/h (3 Bft)
22.01.2015 11:00 0,2 C -0,6 C 86 % 1016,9 hPa 0,0 l/m 0 min 0 min 41 W/m 20,9 km/h (4 Bft)
22.01.2015 11:02 0,2 C 0,0 C 86 % 1016,9 hPa 0,0 l/m 0 min 0 min 47 W/m 20,9 km/h (4 Bft)
22.01.2015 11:04 0,2 C 0,0 C 86 % 1016,9 hPa 0,0 l/m 0 min 0 min 55 W/m 18,8 km/h (3 Bft)
22.01.2015 11:06 0,3 C 0,0 C 85 % 1017,0 hPa 0,0 l/m 0 min 0 min 65 W/m 18,8 km/h (3 Bft)
22.01.2015 11:08 0,3 C 0,0 C 85 % 1017,0 hPa 0,0 l/m 0 min 0 min 68 W/m 16,7 km/h (3 Bft)
22.01.2015 11:10 0,3 C 0,0 C 85 % 1017,0 hPa 0,0 l/m 0 min 0 min 64 W/m 12,6 km/h (3 Bft)
22.01.2015 11:12 0,3 C 0,0 C 85 % 1017,0 hPa 0,0 l/m 0 min 0 min 65 W/m 23,0 km/h (4 Bft)
22.01.2015 11:14 0,3 C 0,0 C 85 % 1017,0 hPa 0,0 l/m 0 min 0 min 65 W/m 20,9 km/h (4 Bft)
22.01.2015 11:16 0,3 C 0,0 C 85 % 1017,0 hPa 0,0 l/m 0 min 0 min 51 W/m 16,7 km/h (3 Bft)
22.01.2015 11:18 0,3 C 0,0 C 85 % 1017,0 hPa 0,0 l/m 0 min 0 min 50 W/m 16,7 km/h (3 Bft)
22.01.2015 11:20 0,4 C 0,0 C 85 % 1017,0 hPa 0,0 l/m 0 min 0 min 48 W/m 20,9 km/h (4 Bft)
22.01.2015 11:22 0,4 C 0,0 C 85 % 1017,0 hPa 0,0 l/m 0 min 0 min 47 W/m 8,4 km/h (2 Bft)
22.01.2015 11:24 0,4 C 0,0 C 85 % 1017,0 hPa 0,0 l/m 0 min 0 min 48 W/m 14,6 km/h (3 Bft)
22.01.2015 11:26 0,4 C 0,0 C 85 % 1017,0 hPa 0,0 l/m 0 min 0 min 49 W/m 25,1 km/h (4 Bft)
22.01.2015 11:29 0,4 C 0,0 C 85 % 1017,0 hPa 0,0 l/m 0 min 0 min 54 W/m 20,9 km/h (4 Bft)
22.01.2015 11:30 0,4 C 0,0 C 85 % 1017,0 hPa 0,0 l/m 0 min 0 min 54 W/m 20,9 km/h (4 Bft)
22.01.2015 11:32 0,4 C 0,0 C 85 % 1017,0 hPa 0,0 l/m 0 min 0 min 53 W/m 20,9 km/h (4 Bft)
22.01.2015 11:34 0,4 C 0,0 C 85 % 1016,9 hPa 0,0 l/m 0 min 0 min 51 W/m 20,9 km/h (4 Bft)
22.01.2015 11:36 0,5 C 0,0 C 85 % 1017,0 hPa 0,0 l/m 0 min 0 min 53 W/m 20,9 km/h (4 Bft)
22.01.2015 11:42 0,5 C 0,0 C 85 % 1016,9 hPa 0,0 l/m 0 min 0 min 55 W/m 23,0 km/h (4 Bft)
22.01.2015 11:44 0,5 C 0,0 C 85 % 1016,9 hPa 0,0 l/m 0 min 0 min 59 W/m 25,1 km/h (4 Bft)
22.01.2015 11:46 0,5 C 0,0 C 85 % 1016,9 hPa 0,0 l/m 0 min 0 min 61 W/m 18,8 km/h (3 Bft)
22.01.2015 11:48 0,5 C 0,0 C 84 % 1016,9 hPa 0,0 l/m 0 min 0 min 62 W/m 20,9 km/h (4 Bft)
22.01.2015 11:50 0,5 C 0,0 C 84 % 1016,9 hPa 0,0 l/m 0 min 0 min 64 W/m 20,9 km/h (4 Bft)
22.01.2015 11:52 0,5 C 0,0 C 84 % 1016,9 hPa 0,0 l/m 0 min 0 min 75 W/m 18,8 km/h (3 Bft)
22.01.2015 11:54 0,5 C 0,0 C 84 % 1016,9 hPa 0,0 l/m 0 min 0 min 89 W/m 20,9 km/h (4 Bft)
22.01.2015 11:56 0,5 C 0,6 C 84 % 1016,9 hPa 0,0 l/m 0 min 0 min 98 W/m 18,8 km/h (3 Bft)
22.01.2015 11:58 0,5 C 0,6 C 84 % 1016,9 hPa 0,0 l/m 0 min 0 min 90 W/m 12,6 km/h (3 Bft)
22.01.2015 12:00 0,5 C 0,6 C 84 % 1016,9 hPa 0,0 l/m 0 min 0 min 86 W/m 14,6 km/h (3 Bft)
22.01.2015 12:02 0,5 C 0,6 C 84 % 1016,9 hPa 0,0 l/m 0 min 0 min 89 W/m 14,6 km/h (3 Bft)
22.01.2015 12:05 0,6 C 0,6 C 84 % 1016,9 hPa 0,0 l/m 0 min 0 min 98 W/m 10,5 km/h (2 Bft)
22.01.2015 12:07 0,7 C 0,6 C 84 % 1016,9 hPa 0,0 l/m 0 min 0 min 105 W/m 16,7 km/h (3 Bft)
22.01.2015 12:12 0,7 C 0,6 C 84 % 1016,9 hPa 0,0 l/m 0 min 0 min 98 W/m 16,7 km/h (3 Bft)
22.01.2015 12:13 0,8 C 0,6 C 84 % 1016,9 hPa 0,0 l/m 0 min 0 min 105 W/m 6,3 km/h (2 Bft)
22.01.2015 12:17 0,8 C 0,6 C 84 % 1016,9 hPa 0,0 l/m 0 min 0 min 105 W/m 16,7 km/h (3 Bft)
22.01.2015 12:18 0,8 C 0,6 C 84 % 1016,9 hPa 0,0 l/m 0 min 0 min 101 W/m 14,6 km/h (3 Bft)
22.01.2015 12:20 0,8 C 0,6 C 84 % 1016,9 hPa 0,0 l/m 0 min 0 min 89 W/m 16,7 km/h (3 Bft)
22.01.2015 12:22 0,8 C 0,6 C 84 % 1017,0 hPa 0,0 l/m 0 min 0 min 84 W/m 18,8 km/h (3 Bft)
22.01.2015 12:24 0,8 C 0,6 C 84 % 1017,0 hPa 0,0 l/m 0 min 0 min 82 W/m 20,9 km/h (4 Bft)
22.01.2015 12:26 0,9 C 0,6 C 84 % 1017,0 hPa 0,0 l/m 0 min 0 min 74 W/m 16,7 km/h (3 Bft)
22.01.2015 12:28 0,9 C 0,6 C 83 % 1017,0 hPa 0,0 l/m 0 min 0 min 66 W/m 18,8 km/h (3 Bft)
22.01.2015 12:30 0,9 C 0,6 C 83 % 1017,1 hPa 0,0 l/m 0 min 0 min 62 W/m 16,7 km/h (3 Bft)
22.01.2015 12:32 0,9 C 0,6 C 83 % 1017,0 hPa 0,0 l/m 0 min 0 min 63 W/m 12,6 km/h (3 Bft)
22.01.2015 12:34 0,9 C 0,6 C 83 % 1017,0 hPa 0,0 l/m 0 min 0 min 63 W/m 18,8 km/h (3 Bft)
22.01.2015 12:36 0,9 C 0,6 C 83 % 1017,0 hPa 0,0 l/m 0 min 0 min 63 W/m 16,7 km/h (3 Bft)
22.01.2015 12:38 0,9 C 0,6 C 83 % 1017,1 hPa 0,0 l/m 0 min 0 min 63 W/m 18,8 km/h (3 Bft)
22.01.2015 12:40 0,9 C 0,6 C 83 % 1017,1 hPa 0,0 l/m 0 min 0 min 62 W/m 16,7 km/h (3 Bft)
22.01.2015 12:42 0,9 C 0,6 C 83 % 1017,1 hPa 0,0 l/m 0 min 0 min 58 W/m 12,6 km/h (3 Bft)
22.01.2015 12:44 0,9 C 0,6 C 83 % 1017,2 hPa 0,0 l/m 0 min 0 min 57 W/m 12,6 km/h (3 Bft)
22.01.2015 12:46 0,9 C 0,6 C 83 % 1017,2 hPa 0,0 l/m 0 min 0 min 54 W/m 16,7 km/h (3 Bft)
22.01.2015 12:48 0,9 C 0,6 C 83 % 1017,2 hPa 0,0 l/m 0 min 0 min 50 W/m 18,8 km/h (3 Bft)
22.01.2015 12:50 0,9 C 0,0 C 83 % 1017,2 hPa 0,0 l/m 0 min 0 min 49 W/m 14,6 km/h (3 Bft)
22.01.2015 12:52 0,9 C 0,0 C 83 % 1017,2 hPa 0,0 l/m 0 min 0 min 57 W/m 16,7 km/h (3 Bft)
22.01.2015 12:54 0,8 C 0,0 C 83 % 1017,2 hPa 0,0 l/m 0 min 0 min 68 W/m 18,8 km/h (3 Bft)
22.01.2015 12:56 0,8 C 0,6 C 83 % 1017,3 hPa 0,0 l/m 0 min 0 min 75 W/m 18,8 km/h (3 Bft)
22.01.2015 12:58 0,8 C 0,0 C 83 % 1017,2 hPa 0,0 l/m 0 min 0 min 76 W/m 18,8 km/h (3 Bft)
22.01.2015 13:00 0,8 C 0,6 C 83 % 1017,2 hPa 0,0 l/m 0 min 0 min 74 W/m 23,0 km/h (4 Bft)
22.01.2015 13:02 0,8 C 0,0 C 83 % 1017,2 hPa 0,0 l/m 0 min 0 min 74 W/m 18,8 km/h (3 Bft)
22.01.2015 13:04 0,8 C 0,0 C 84 % 1017,2 hPa 0,0 l/m 0 min 0 min 71 W/m 18,8 km/h (3 Bft)
22.01.2015 13:06 0,8 C 0,6 C 84 % 1017,2 hPa 0,0 l/m 0 min 0 min 68 W/m 18,8 km/h (3 Bft)
22.01.2015 13:08 0,8 C 0,6 C 84 % 1017,2 hPa 0,0 l/m 0 min 0 min 74 W/m 16,7 km/h (3 Bft)
22.01.2015 13:10 0,8 C 0,6 C 84 % 1017,2 hPa 0,0 l/m 0 min 0 min 75 W/m 20,9 km/h (4 Bft)
22.01.2015 13:12 0,8 C 0,6 C 84 % 1017,2 hPa 0,0 l/m 0 min 0 min 72 W/m 20,9 km/h (4 Bft)
22.01.2015 13:14 0,8 C 0,6 C 84 % 1017,2 hPa 0,0 l/m 0 min 0 min 69 W/m 16,7 km/h (3 Bft)
22.01.2015 13:16 0,8 C 0,6 C 84 % 1017,2 hPa 0,0 l/m 0 min 0 min 65 W/m 18,8 km/h (3 Bft)
22.01.2015 13:18 0,8 C 0,6 C 84 % 1017,2 hPa 0,0 l/m 0 min 0 min 63 W/m 12,6 km/h (3 Bft)
22.01.2015 13:20 0,8 C 0,6 C 84 % 1017,3 hPa 0,0 l/m 0 min 0 min 62 W/m 10,5 km/h (2 Bft)
22.01.2015 13:22 0,8 C 0,6 C 84 % 1017,3 hPa 0,0 l/m 0 min 0 min 60 W/m 12,6 km/h (3 Bft)
22.01.2015 13:24 0,8 C 0,6 C 84 % 1017,2 hPa 0,0 l/m 0 min 0 min 55 W/m 12,6 km/h (3 Bft)
22.01.2015 13:26 0,8 C 0,6 C 84 % 1017,3 hPa 0,0 l/m 0 min 0 min 54 W/m 14,6 km/h (3 Bft)
22.01.2015 13:28 0,8 C 0,6 C 84 % 1017,3 hPa 0,0 l/m 0 min 0 min 60 W/m 14,6 km/h (3 Bft)
22.01.2015 13:30 0,8 C 0,6 C 84 % 1017,3 hPa 0,0 l/m 0 min 0 min 62 W/m 16,7 km/h (3 Bft)
22.01.2015 13:32 0,8 C 0,6 C 84 % 1017,3 hPa 0,0 l/m 0 min 0 min 60 W/m 14,6 km/h (3 Bft)
22.01.2015 13:34 0,8 C 0,6 C 84 % 1017,2 hPa 0,0 l/m 0 min 0 min 58 W/m 16,7 km/h (3 Bft)
22.01.2015 13:36 0,9 C 0,6 C 83 % 1017,3 hPa 0,0 l/m 0 min 0 min 57 W/m 16,7 km/h (3 Bft)
22.01.2015 13:38 0,9 C 0,6 C 83 % 1017,3 hPa 0,0 l/m 0 min 0 min 55 W/m 14,6 km/h (3 Bft)
22.01.2015 13:40 0,9 C 0,6 C 83 % 1017,3 hPa 0,0 l/m 0 min 0 min 54 W/m 18,8 km/h (3 Bft)
22.01.2015 13:42 0,9 C 0,6 C 83 % 1017,4 hPa 0,0 l/m 0 min 0 min 54 W/m 16,7 km/h (3 Bft)
22.01.2015 13:44 0,9 C 0,6 C 83 % 1017,4 hPa 0,0 l/m 0 min 0 min 51 W/m 16,7 km/h (3 Bft)
22.01.2015 13:46 0,9 C 0,6 C 83 % 1017,4 hPa 0,0 l/m 0 min 0 min 48 W/m 10,5 km/h (2 Bft)
22.01.2015 13:48 0,9 C 0,6 C 83 % 1017,4 hPa 0,0 l/m 0 min 0 min 46 W/m 10,5 km/h (2 Bft)
22.01.2015 13:50 0,9 C 0,6 C 83 % 1017,3 hPa 0,0 l/m 0 min 0 min 46 W/m 8,4 km/h (2 Bft)
22.01.2015 13:52 0,9 C 0,6 C 83 % 1017,3 hPa 0,0 l/m 0 min 0 min 44 W/m 14,6 km/h (3 Bft)
22.01.2015 13:54 0,9 C 0,6 C 83 % 1017,4 hPa 0,0 l/m 0 min 0 min 44 W/m 14,6 km/h (3 Bft)
22.01.2015 13:56 0,9 C 0,0 C 84 % 1017,4 hPa 0,0 l/m 0 min 0 min 44 W/m 14,6 km/h (3 Bft)
22.01.2015 13:58 0,9 C 0,0 C 84 % 1017,4 hPa 0,0 l/m 0 min 0 min 46 W/m 12,6 km/h (3 Bft)
22.01.2015 14:00 0,9 C 0,0 C 84 % 1017,4 hPa 0,0 l/m 0 min 0 min 46 W/m 12,6 km/h (3 Bft)
22.01.2015 14:02 0,9 C 0,0 C 84 % 1017,4 hPa 0,0 l/m 0 min 0 min 45 W/m 10,5 km/h (2 Bft)
22.01.2015 14:04 0,9 C 0,0 C 84 % 1017,4 hPa 0,0 l/m 0 min 0 min 44 W/m 10,5 km/h (2 Bft)
22.01.2015 14:06 0,8 C 0,0 C 84 % 1017,4 hPa 0,0 l/m 0 min 0 min 42 W/m 12,6 km/h (3 Bft)
22.01.2015 14:08 0,8 C 0,0 C 84 % 1017,4 hPa 0,0 l/m 0 min 0 min 42 W/m 12,6 km/h (3 Bft)
22.01.2015 14:10 0,8 C 0,0 C 84 % 1017,4 hPa 0,0 l/m 0 min 0 min 41 W/m 18,8 km/h (3 Bft)
22.01.2015 14:12 0,8 C 0,0 C 84 % 1017,5 hPa 0,0 l/m 0 min 0 min 42 W/m 18,8 km/h (3 Bft)
22.01.2015 14:14 0,8 C 0,0 C 84 % 1017,4 hPa 0,0 l/m 0 min 0 min 42 W/m 12,6 km/h (3 Bft)
22.01.2015 14:16 0,8 C 0,0 C 84 % 1017,4 hPa 0,0 l/m 0 min 0 min 42 W/m 23,0 km/h (4 Bft)
22.01.2015 14:18 0,8 C 0,0 C 84 % 1017,4 hPa 0,0 l/m 0 min 0 min 44 W/m 14,6 km/h (3 Bft)
22.01.2015 14:20 0,8 C 0,0 C 84 % 1017,4 hPa 0,0 l/m 0 min 0 min 44 W/m 12,6 km/h (3 Bft)
22.01.2015 14:22 0,8 C 0,6 C 84 % 1017,4 hPa 0,0 l/m 0 min 0 min 42 W/m 12,6 km/h (3 Bft)
22.01.2015 14:24 0,8 C 0,6 C 84 % 1017,4 hPa 0,0 l/m 0 min 0 min 42 W/m 12,6 km/h (3 Bft)
22.01.2015 14:26 0,8 C 0,6 C 84 % 1017,3 hPa 0,0 l/m 0 min 0 min 40 W/m 14,6 km/h (3 Bft)
22.01.2015 14:28 0,8 C 0,6 C 84 % 1017,5 hPa 0,0 l/m 0 min 0 min 39 W/m 8,4 km/h (2 Bft)
22.01.2015 14:30 0,8 C 0,6 C 84 % 1017,4 hPa 0,0 l/m 0 min 0 min 40 W/m 10,5 km/h (2 Bft)
22.01.2015 14:32 0,8 C 0,6 C 84 % 1017,5 hPa 0,0 l/m 0 min 0 min 40 W/m 14,6 km/h (3 Bft)
22.01.2015 14:34 0,8 C 0,0 C 84 % 1017,4 hPa 0,0 l/m 0 min 0 min 40 W/m 12,6 km/h (3 Bft)
22.01.2015 14:36 0,8 C 0,0 C 84 % 1017,5 hPa 0,0 l/m 0 min 0 min 39 W/m 12,6 km/h (3 Bft)
22.01.2015 14:38 0,8 C 0,0 C 84 % 1017,5 hPa 0,0 l/m 0 min 0 min 39 W/m 14,6 km/h (3 Bft)
22.01.2015 14:40 0,8 C 0,0 C 83 % 1017,5 hPa 0,0 l/m 0 min 0 min 39 W/m 12,6 km/h (3 Bft)
22.01.2015 14:42 0,8 C 0,0 C 83 % 1017,5 hPa 0,0 l/m 0 min 0 min 39 W/m 16,7 km/h (3 Bft)
22.01.2015 14:44 0,8 C 0,0 C 84 % 1017,5 hPa 0,0 l/m 0 min 0 min 37 W/m 10,5 km/h (2 Bft)
22.01.2015 14:46 0,8 C 0,0 C 84 % 1017,5 hPa 0,0 l/m 0 min 0 min 37 W/m 10,5 km/h (2 Bft)
22.01.2015 14:48 0,8 C 0,0 C 84 % 1017,5 hPa 0,0 l/m 0 min 0 min 37 W/m 18,8 km/h (3 Bft)
22.01.2015 14:50 0,8 C 0,0 C 84 % 1017,5 hPa 0,0 l/m 0 min 0 min 33 W/m 16,7 km/h (3 Bft)
22.01.2015 14:52 0,8 C 0,0 C 84 % 1017,6 hPa 0,0 l/m 0 min 0 min 34 W/m 10,5 km/h (2 Bft)
22.01.2015 14:54 0,8 C 0,0 C 84 % 1017,6 hPa 0,0 l/m 0 min 0 min 36 W/m 6,3 km/h (2 Bft)
22.01.2015 14:56 0,8 C 0,0 C 84 % 1017,6 hPa 0,0 l/m 0 min 0 min 36 W/m 12,6 km/h (3 Bft)
22.01.2015 14:58 0,8 C 0,0 C 84 % 1017,6 hPa 0,0 l/m 0 min 0 min 35 W/m 16,7 km/h (3 Bft)
22.01.2015 15:00 0,8 C 0,0 C 84 % 1017,6 hPa 0,0 l/m 0 min 0 min 34 W/m 8,4 km/h (2 Bft)
22.01.2015 15:02 0,8 C 0,0 C 83 % 1017,6 hPa 0,0 l/m 0 min 0 min 35 W/m 16,7 km/h (3 Bft)
22.01.2015 15:04 0,8 C 0,0 C 83 % 1017,6 hPa 0,0 l/m 0 min 0 min 35 W/m 16,7 km/h (3 Bft)
22.01.2015 15:06 0,8 C 0,0 C 83 % 1017,6 hPa 0,0 l/m 0 min 0 min 34 W/m 12,6 km/h (3 Bft)
22.01.2015 15:08 0,8 C 0,0 C 83 % 1017,7 hPa 0,0 l/m 0 min 0 min 33 W/m 10,5 km/h (2 Bft)
22.01.2015 15:10 0,8 C 0,0 C 83 % 1017,7 hPa 0,0 l/m 0 min 0 min 33 W/m 10,5 km/h (2 Bft)
22.01.2015 15:12 0,8 C 0,0 C 83 % 1017,7 hPa 0,0 l/m 0 min 0 min 34 W/m 6,3 km/h (2 Bft)
22.01.2015 15:14 0,8 C 0,0 C 83 % 1017,7 hPa 0,0 l/m 0 min 0 min 35 W/m 14,6 km/h (3 Bft)
22.01.2015 15:16 0,8 C 0,0 C 83 % 1017,7 hPa 0,0 l/m 0 min 0 min 35 W/m 12,6 km/h (3 Bft)
22.01.2015 15:18 0,8 C 0,0 C 83 % 1017,7 hPa 0,0 l/m 0 min 0 min 35 W/m 8,4 km/h (2 Bft)
22.01.2015 15:20 0,8 C 0,6 C 83 % 1017,7 hPa 0,0 l/m 0 min 0 min 35 W/m 14,6 km/h (3 Bft)
22.01.2015 15:22 0,8 C 0,6 C 83 % 1017,7 hPa 0,0 l/m 0 min 0 min 34 W/m 10,5 km/h (2 Bft)
22.01.2015 15:24 0,9 C 0,6 C 83 % 1017,7 hPa 0,0 l/m 0 min 0 min 35 W/m 8,4 km/h (2 Bft)
22.01.2015 15:26 0,9 C 0,6 C 83 % 1017,7 hPa 0,0 l/m 0 min 0 min 33 W/m 14,6 km/h (3 Bft)
22.01.2015 15:28 0,9 C 0,6 C 83 % 1017,7 hPa 0,0 l/m 0 min 0 min 30 W/m 16,7 km/h (3 Bft)
22.01.2015 15:30 0,9 C 0,6 C 83 % 1017,7 hPa 0,0 l/m 0 min 0 min 30 W/m 14,6 km/h (3 Bft)
22.01.2015 15:32 0,9 C 0,6 C 83 % 1017,7 hPa 0,0 l/m 0 min 0 min 28 W/m 12,6 km/h (3 Bft)
22.01.2015 15:34 0,9 C 0,6 C 83 % 1017,7 hPa 0,0 l/m 0 min 0 min 28 W/m 16,7 km/h (3 Bft)
22.01.2015 15:36 0,9 C 0,6 C 83 % 1017,7 hPa 0,0 l/m 0 min 0 min 30 W/m 20,9 km/h (4 Bft)
22.01.2015 15:38 0,9 C 0,0 C 83 % 1017,7 hPa 0,0 l/m 0 min 0 min 31 W/m 14,6 km/h (3 Bft)
22.01.2015 15:40 0,9 C 0,0 C 83 % 1017,7 hPa 0,0 l/m 0 min 0 min 26 W/m 10,5 km/h (2 Bft)
22.01.2015 15:42 0,9 C 0,0 C 83 % 1017,8 hPa 0,0 l/m 0 min 0 min 21 W/m 10,5 km/h (2 Bft)
22.01.2015 15:44 0,9 C 0,0 C 83 % 1017,8 hPa 0,0 l/m 0 min 0 min 20 W/m 14,6 km/h (3 Bft)
22.01.2015 15:46 0,9 C 0,0 C 83 % 1017,8 hPa 0,0 l/m 0 min 0 min 15 W/m 10,5 km/h (2 Bft)
22.01.2015 15:48 0,9 C 0,0 C 83 % 1017,8 hPa 0,0 l/m 0 min 0 min 11 W/m 10,5 km/h (2 Bft)
22.01.2015 15:50 0,9 C 0,0 C 83 % 1017,9 hPa 0,0 l/m 0 min 0 min 11 W/m 14,6 km/h (3 Bft)
22.01.2015 15:52 0,9 C 0,0 C 83 % 1017,9 hPa 0,0 l/m 0 min 0 min 10 W/m 6,3 km/h (2 Bft)
22.01.2015 15:54 0,9 C 0,0 C 83 % 1018,0 hPa 0,0 l/m 0 min 0 min 9 W/m 10,5 km/h (2 Bft)
22.01.2015 15:56 0,9 C 0,0 C 83 % 1018,0 hPa 0,0 l/m 0 min 0 min 9 W/m 10,5 km/h (2 Bft)
22.01.2015 15:58 0,9 C 0,0 C 83 % 1018,0 hPa 0,0 l/m 0 min 0 min 9 W/m 8,4 km/h (2 Bft)
22.01.2015 16:00 0,9 C 0,0 C 83 % 1018,1 hPa 0,0 l/m 0 min 0 min 9 W/m 10,5 km/h (2 Bft)
22.01.2015 16:02 0,9 C 0,0 C 83 % 1018,1 hPa 0,0 l/m 0 min 0 min 8 W/m 14,6 km/h (3 Bft)
22.01.2015 16:04 0,9 C 0,0 C 83 % 1018,1 hPa 0,0 l/m 0 min 0 min 7 W/m 10,5 km/h (2 Bft)
22.01.2015 16:05 0,9 C 0,0 C 83 % 1018,1 hPa 0,0 l/m 0 min 0 min 7 W/m 14,6 km/h (3 Bft)
22.01.2015 16:10 0,8 C 0,0 C 83 % 1018,2 hPa 0,0 l/m 0 min 0 min 7 W/m 16,7 km/h (3 Bft)
22.01.2015 16:15 0,8 C 0,0 C 84 % 1018,2 hPa 0,0 l/m 0 min 0 min 7 W/m 14,6 km/h (3 Bft)
22.01.2015 16:20 0,8 C 0,0 C 84 % 1018,2 hPa 0,0 l/m 0 min 0 min 7 W/m 10,5 km/h (2 Bft)
22.01.2015 16:25 0,8 C 0,0 C 84 % 1018,3 hPa 0,0 l/m 0 min 0 min 7 W/m 18,8 km/h (3 Bft)
22.01.2015 16:30 0,8 C 0,0 C 84 % 1018,3 hPa 0,0 l/m 0 min 0 min 7 W/m 16,7 km/h (3 Bft)
22.01.2015 16:35 0,8 C 0,0 C 84 % 1018,4 hPa 0,0 l/m 0 min 0 min 6 W/m 23,0 km/h (4 Bft)
22.01.2015 16:40 0,8 C 0,0 C 84 % 1018,5 hPa 0,0 l/m 0 min 0 min 5 W/m 14,6 km/h (3 Bft)
22.01.2015 16:45 0,8 C 0,0 C 84 % 1018,5 hPa 0,0 l/m 0 min 0 min 2 W/m 20,9 km/h (4 Bft)
22.01.2015 16:50 0,8 C 0,0 C 84 % 1018,6 hPa 0,0 l/m 0 min 0 min 0 W/m 18,8 km/h (3 Bft)
22.01.2015 16:55 0,8 C 0,0 C 84 % 1018,6 hPa 0,0 l/m 0 min 0 min 0 W/m 16,7 km/h (3 Bft)
22.01.2015 17:00 0,8 C 0,0 C 83 % 1018,6 hPa 0,0 l/m 0 min 0 min 0 W/m 16,7 km/h (3 Bft)
22.01.2015 17:06 0,8 C 0,0 C 83 % 1018,7 hPa 0,0 l/m 0 min 0 min 4 W/m 12,6 km/h (3 Bft)
22.01.2015 17:08 0,8 C 0,0 C 83 % 1018,7 hPa 0,0 l/m 0 min 0 min 0 W/m 10,5 km/h (2 Bft)
22.01.2015 17:10 0,8 C 0,0 C 83 % 1018,8 hPa 0,0 l/m 0 min 0 min 0 W/m 14,6 km/h (3 Bft)
22.01.2015 17:12 0,8 C 0,0 C 83 % 1018,8 hPa 0,0 l/m 0 min 0 min 0 W/m 14,6 km/h (3 Bft)
22.01.2015 17:14 0,8 C 0,0 C 83 % 1018,8 hPa 0,0 l/m 0 min 0 min 0 W/m 10,5 km/h (2 Bft)
22.01.2015 17:16 0,8 C 0,0 C 83 % 1018,9 hPa 0,0 l/m 0 min 0 min 0 W/m 10,5 km/h (2 Bft)
22.01.2015 17:18 0,8 C 0,0 C 83 % 1018,9 hPa 0,0 l/m 0 min 0 min 0 W/m 6,3 km/h (2 Bft)
22.01.2015 17:20 0,8 C 0,0 C 83 % 1019,0 hPa 0,0 l/m 0 min 0 min 0 W/m 6,3 km/h (2 Bft)
22.01.2015 17:22 0,8 C 0,0 C 83 % 1019,1 hPa 0,0 l/m 0 min 0 min 0 W/m 12,6 km/h (3 Bft)
22.01.2015 17:24 0,8 C 0,0 C 83 % 1019,1 hPa 0,0 l/m 0 min 0 min 0 W/m 14,6 km/h (3 Bft)
22.01.2015 17:26 0,8 C 0,0 C 83 % 1019,1 hPa 0,0 l/m 0 min 0 min 0 W/m 10,5 km/h (2 Bft)
22.01.2015 17:28 0,8 C 0,0 C 83 % 1019,1 hPa 0,0 l/m 0 min 0 min 0 W/m 10,5 km/h (2 Bft)
22.01.2015 17:30 0,8 C 0,0 C 84 % 1019,1 hPa 0,0 l/m 0 min 0 min 0 W/m 10,5 km/h (2 Bft)
22.01.2015 17:32 0,8 C 0,0 C 84 % 1019,1 hPa 0,0 l/m 0 min 0 min 0 W/m 10,5 km/h (2 Bft)
22.01.2015 17:34 0,8 C 0,0 C 84 % 1019,2 hPa 0,0 l/m 0 min 0 min 0 W/m 10,5 km/h (2 Bft)
22.01.2015 17:36 0,8 C 0,0 C 84 % 1019,2 hPa 0,0 l/m 0 min 0 min 0 W/m 8,4 km/h (2 Bft)
22.01.2015 17:38 0,8 C 0,0 C 84 % 1019,2 hPa 0,0 l/m 0 min 0 min 0 W/m 10,5 km/h (2 Bft)
22.01.2015 17:40 0,8 C 0,0 C 84 % 1019,3 hPa 0,0 l/m 0 min 0 min 0 W/m 10,5 km/h (2 Bft)
22.01.2015 17:42 0,8 C 0,0 C 84 % 1019,2 hPa 0,0 l/m 0 min 0 min 0 W/m 8,4 km/h (2 Bft)
22.01.2015 17:44 0,8 C 0,0 C 84 % 1019,3 hPa 0,0 l/m 0 min 0 min 0 W/m 6,3 km/h (2 Bft)
22.01.2015 17:46 0,8 C 0,0 C 84 % 1019,3 hPa 0,0 l/m 0 min 0 min 0 W/m 6,3 km/h (2 Bft)
22.01.2015 17:48 0,8 C 0,0 C 84 % 1019,3 hPa 0,0 l/m 0 min 0 min 0 W/m 6,3 km/h (2 Bft)
22.01.2015 17:50 0,8 C 0,0 C 84 % 1019,3 hPa 0,0 l/m 0 min 0 min 0 W/m 4,2 km/h (1 Bft)
22.01.2015 17:55 0,8 C 0,0 C 84 % 1019,3 hPa 0,0 l/m 0 min 0 min 0 W/m 8,4 km/h (2 Bft)
22.01.2015 18:00 0,8 C 0,0 C 84 % 1019,3 hPa 0,0 l/m 0 min 0 min 0 W/m 8,4 km/h (2 Bft)
22.01.2015 18:05 0,8 C 0,0 C 84 % 1019,3 hPa 0,0 l/m 0 min 0 min 0 W/m 10,5 km/h (2 Bft)
22.01.2015 18:10 0,8 C 0,0 C 84 % 1019,4 hPa 0,0 l/m 0 min 0 min 0 W/m 14,6 km/h (3 Bft)
22.01.2015 18:15 0,9 C 0,0 C 85 % 1019,4 hPa 0,0 l/m 0 min 0 min 0 W/m 10,5 km/h (2 Bft)
22.01.2015 18:18 0,9 C 0,0 C 85 % 1019,4 hPa 0,0 l/m 0 min 0 min 0 W/m 8,4 km/h (2 Bft)
22.01.2015 18:20 0,9 C 0,0 C 85 % 1019,4 hPa 0,0 l/m 0 min 0 min 0 W/m 6,3 km/h (2 Bft)
22.01.2015 18:22 0,9 C 0,0 C 85 % 1019,4 hPa 0,0 l/m 0 min 0 min 0 W/m 8,4 km/h (2 Bft)
22.01.2015 18:24 0,9 C 0,0 C 85 % 1019,5 hPa 0,0 l/m 0 min 0 min 0 W/m 8,4 km/h (2 Bft)
22.01.2015 18:26 0,9 C 0,0 C 85 % 1019,5 hPa 0,0 l/m 0 min 0 min 0 W/m 8,4 km/h (2 Bft)
22.01.2015 18:28 0,9 C 0,0 C 85 % 1019,5 hPa 0,0 l/m 0 min 0 min 0 W/m 10,5 km/h (2 Bft)
22.01.2015 18:30 0,9 C 0,0 C 85 % 1019,5 hPa 0,0 l/m 0 min 0 min 0 W/m 8,4 km/h (2 Bft)
22.01.2015 18:32 0,9 C 0,0 C 85 % 1019,5 hPa 0,0 l/m 0 min 0 min 0 W/m 8,4 km/h (2 Bft)
22.01.2015 18:34 0,9 C 0,0 C 85 % 1019,6 hPa 0,0 l/m 0 min 0 min 0 W/m 6,3 km/h (2 Bft)
22.01.2015 18:36 0,9 C 0,0 C 86 % 1019,6 hPa 0,0 l/m 0 min 0 min 0 W/m 6,3 km/h (2 Bft)
22.01.2015 18:38 0,9 C 0,0 C 85 % 1019,6 hPa 0,0 l/m 0 min 0 min 0 W/m 6,3 km/h (2 Bft)
22.01.2015 18:40 0,9 C 0,0 C 86 % 1019,7 hPa 0,0 l/m 0 min 0 min 0 W/m 10,5 km/h (2 Bft)
22.01.2015 18:42 0,9 C 0,0 C 86 % 1019,7 hPa 0,0 l/m 0 min 0 min 0 W/m 10,5 km/h (2 Bft)
22.01.2015 18:44 0,9 C 0,0 C 86 % 1019,7 hPa 0,0 l/m 0 min 0 min 0 W/m 12,6 km/h (3 Bft)
22.01.2015 18:46 0,9 C 0,0 C 86 % 1019,8 hPa 0,0 l/m 0 min 0 min 0 W/m 8,4 km/h (2 Bft)
22.01.2015 18:48 0,8 C 0,0 C 86 % 1019,7 hPa 0,0 l/m 0 min 0 min 0 W/m 10,5 km/h (2 Bft)
22.01.2015 18:50 0,8 C -0,6 C 86 % 1019,8 hPa 0,0 l/m 0 min 0 min 0 W/m 14,6 km/h (3 Bft)
22.01.2015 18:52 0,8 C -0,6 C 86 % 1019,8 hPa 0,0 l/m 0 min 0 min 0 W/m 14,6 km/h (3 Bft)
22.01.2015 18:54 0,8 C -0,6 C 86 % 1019,8 hPa 0,0 l/m 0 min 0 min 0 W/m 14,6 km/h (3 Bft)
22.01.2015 18:56 0,8 C -0,6 C 87 % 1019,8 hPa 0,0 l/m 0 min 0 min 0 W/m 14,6 km/h (3 Bft)
22.01.2015 18:58 0,8 C -0,6 C 86 % 1019,8 hPa 0,0 l/m 0 min 0 min 0 W/m 14,6 km/h (3 Bft)
22.01.2015 19:00 0,7 C -0,6 C 87 % 1019,9 hPa 0,0 l/m 0 min 0 min 0 W/m 14,6 km/h (3 Bft)
22.01.2015 19:05 0,7 C -0,6 C 87 % 1019,8 hPa 0,0 l/m 0 min 0 min 0 W/m 20,9 km/h (4 Bft)
22.01.2015 19:08 0,7 C -0,6 C 87 % 1019,8 hPa 0,0 l/m 0 min 0 min 0 W/m 12,6 km/h (3 Bft)
22.01.2015 19:10 0,7 C -0,6 C 87 % 1019,9 hPa 0,0 l/m 0 min 0 min 0 W/m 10,5 km/h (2 Bft)
22.01.2015 19:12 0,6 C -0,6 C 87 % 1019,9 hPa 0,0 l/m 0 min 0 min 0 W/m 10,5 km/h (2 Bft)
22.01.2015 19:14 0,6 C -0,6 C 88 % 1019,9 hPa 0,0 l/m 0 min 0 min 0 W/m 12,6 km/h (3 Bft)
22.01.2015 19:16 0,6 C -0,6 C 88 % 1019,9 hPa 0,0 l/m 0 min 0 min 0 W/m 12,6 km/h (3 Bft)
22.01.2015 19:18 0,6 C -0,6 C 88 % 1019,9 hPa 0,0 l/m 0 min 0 min 0 W/m 16,7 km/h (3 Bft)
22.01.2015 19:20 0,6 C -0,6 C 88 % 1019,9 hPa 0,0 l/m 0 min 0 min 0 W/m 14,6 km/h (3 Bft)
22.01.2015 19:22 0,6 C -0,6 C 88 % 1020,0 hPa 0,0 l/m 0 min 0 min 0 W/m 14,6 km/h (3 Bft)
22.01.2015 19:24 0,6 C -0,6 C 88 % 1020,0 hPa 0,0 l/m 0 min 0 min 0 W/m 18,8 km/h (3 Bft)
22.01.2015 19:26 0,6 C -0,6 C 88 % 1020,0 hPa 0,0 l/m 0 min 0 min 0 W/m 14,6 km/h (3 Bft)
22.01.2015 19:28 0,5 C -0,6 C 88 % 1020,0 hPa 0,0 l/m 0 min 0 min 0 W/m 14,6 km/h (3 Bft)
22.01.2015 19:30 0,5 C -0,6 C 88 % 1020,0 hPa 0,0 l/m 0 min 0 min 0 W/m 18,8 km/h (3 Bft)
22.01.2015 19:32 0,5 C -0,6 C 89 % 1020,1 hPa 0,0 l/m 0 min 0 min 0 W/m 16,7 km/h (3 Bft)
22.01.2015 19:34 0,5 C -0,6 C 89 % 1020,1 hPa 0,0 l/m 0 min 0 min 0 W/m 12,6 km/h (3 Bft)
22.01.2015 19:36 0,5 C -0,6 C 89 % 1020,2 hPa 0,0 l/m 0 min 0 min 0 W/m 16,7 km/h (3 Bft)
22.01.2015 19:40 0,5 C -0,6 C 89 % 1020,1 hPa 0,0 l/m 0 min 0 min 0 W/m 14,6 km/h (3 Bft)
22.01.2015 19:42 0,5 C -0,6 C 89 % 1020,1 hPa 0,0 l/m 0 min 0 min 0 W/m 16,7 km/h (3 Bft)
22.01.2015 19:44 0,5 C -0,6 C 89 % 1020,1 hPa 0,0 l/m 0 min 0 min 0 W/m 16,7 km/h (3 Bft)
22.01.2015 19:46 0,5 C -0,6 C 89 % 1020,1 hPa 0,0 l/m 0 min 0 min 0 W/m 14,6 km/h (3 Bft)
22.01.2015 19:48 0,5 C -0,6 C 89 % 1020,1 hPa 0,0 l/m 0 min 0 min 0 W/m 16,7 km/h (3 Bft)
22.01.2015 19:50 0,5 C -0,6 C 89 % 1020,1 hPa 0,0 l/m 0 min 0 min 0 W/m 18,8 km/h (3 Bft)
22.01.2015 19:52 0,5 C -0,6 C 89 % 1020,2 hPa 0,0 l/m 0 min 0 min 0 W/m 18,8 km/h (3 Bft)
22.01.2015 19:54 0,5 C -0,6 C 89 % 1020,1 hPa 0,0 l/m 0 min 0 min 0 W/m 20,9 km/h (4 Bft)
22.01.2015 19:56 0,5 C -0,6 C 89 % 1020,2 hPa 0,0 l/m 0 min 0 min 0 W/m 18,8 km/h (3 Bft)
22.01.2015 19:58 0,5 C -0,6 C 89 % 1020,2 hPa 0,0 l/m 0 min 0 min 0 W/m 16,7 km/h (3 Bft)
22.01.2015 20:00 0,5 C -0,6 C 89 % 1020,2 hPa 0,0 l/m 0 min 0 min 0 W/m 16,7 km/h (3 Bft)
22.01.2015 20:02 0,5 C -0,6 C 89 % 1020,2 hPa 0,0 l/m 0 min 0 min 0 W/m 16,7 km/h (3 Bft)
22.01.2015 20:04 0,5 C -0,6 C 89 % 1020,2 hPa 0,0 l/m 0 min 0 min 0 W/m 18,8 km/h (3 Bft)
22.01.2015 20:06 0,5 C -0,6 C 90 % 1020,2 hPa 0,0 l/m 0 min 0 min 0 W/m 18,8 km/h (3 Bft)
22.01.2015 20:08 0,5 C -0,6 C 90 % 1020,2 hPa 0,0 l/m 0 min 0 min 0 W/m 20,9 km/h (4 Bft)
22.01.2015 20:10 0,5 C -0,6 C 90 % 1020,2 hPa 0,0 l/m 0 min 0 min 0 W/m 16,7 km/h (3 Bft)
22.01.2015 20:12 0,5 C -0,6 C 90 % 1020,2 hPa 0,0 l/m 0 min 0 min 0 W/m 14,6 km/h (3 Bft)
22.01.2015 20:14 0,5 C -0,6 C 90 % 1020,2 hPa 0,0 l/m 0 min 0 min 0 W/m 14,6 km/h (3 Bft)
22.01.2015 20:16 0,5 C -0,6 C 90 % 1020,2 hPa 0,0 l/m 0 min 0 min 0 W/m 14,6 km/h (3 Bft)
22.01.2015 20:18 0,5 C -0,6 C 90 % 1020,2 hPa 0,0 l/m 0 min 0 min 0 W/m 18,8 km/h (3 Bft)
22.01.2015 20:20 0,5 C -0,6 C 90 % 1020,2 hPa 0,0 l/m 0 min 0 min 0 W/m 16,7 km/h (3 Bft)
22.01.2015 20:22 0,5 C -0,6 C 90 % 1020,3 hPa 0,0 l/m 0 min 0 min 0 W/m 16,7 km/h (3 Bft)
22.01.2015 20:24 0,5 C -0,6 C 90 % 1020,3 hPa 0,0 l/m 0 min 0 min 0 W/m 14,6 km/h (3 Bft)
22.01.2015 20:26 0,5 C -0,6 C 90 % 1020,3 hPa 0,0 l/m 0 min 0 min 0 W/m 14,6 km/h (3 Bft)
22.01.2015 20:28 0,5 C -0,6 C 90 % 1020,3 hPa 0,0 l/m 0 min 0 min 0 W/m 14,6 km/h (3 Bft)
22.01.2015 20:30 0,5 C -0,6 C 90 % 1020,3 hPa 0,0 l/m 0 min 0 min 0 W/m 18,8 km/h (3 Bft)
22.01.2015 20:32 0,5 C -0,6 C 90 % 1020,4 hPa 0,0 l/m 0 min 0 min 0 W/m 18,8 km/h (3 Bft)
22.01.2015 20:34 0,4 C -0,6 C 90 % 1020,4 hPa 0,0 l/m 0 min 0 min 0 W/m 14,6 km/h (3 Bft)
22.01.2015 20:36 0,5 C -0,6 C 90 % 1020,4 hPa 0,0 l/m 0 min 0 min 0 W/m 16,7 km/h (3 Bft)
22.01.2015 20:38 0,5 C -0,6 C 90 % 1020,4 hPa 0,0 l/m 0 min 0 min 0 W/m 18,8 km/h (3 Bft)
22.01.2015 20:40 0,4 C -0,6 C 90 % 1020,4 hPa 0,0 l/m 0 min 0 min 0 W/m 20,9 km/h (4 Bft)
22.01.2015 20:42 0,5 C -0,6 C 90 % 1020,4 hPa 0,0 l/m 0 min 0 min 0 W/m 14,6 km/h (3 Bft)
22.01.2015 20:44 0,5 C -0,6 C 90 % 1020,5 hPa 0,0 l/m 0 min 0 min 0 W/m 14,6 km/h (3 Bft)
22.01.2015 20:46 0,5 C -0,6 C 90 % 1020,5 hPa 0,0 l/m 0 min 0 min 0 W/m 16,7 km/h (3 Bft)
22.01.2015 20:48 0,5 C -0,6 C 90 % 1020,5 hPa 0,0 l/m 0 min 0 min 0 W/m 18,8 km/h (3 Bft)
22.01.2015 20:50 0,5 C -0,6 C 90 % 1020,5 hPa 0,0 l/m 0 min 0 min 0 W/m 16,7 km/h (3 Bft)
22.01.2015 20:52 0,5 C -0,6 C 91 % 1020,5 hPa 0,0 l/m 0 min 0 min 0 W/m 14,6 km/h (3 Bft)
22.01.2015 20:54 0,5 C -0,6 C 91 % 1020,5 hPa 0,0 l/m 0 min 0 min 0 W/m 16,7 km/h (3 Bft)
22.01.2015 20:56 0,5 C -0,6 C 91 % 1020,5 hPa 0,0 l/m 0 min 0 min 0 W/m 12,6 km/h (3 Bft)
22.01.2015 20:58 0,5 C -0,6 C 91 % 1020,7 hPa 0,0 l/m 0 min 0 min 0 W/m 14,6 km/h (3 Bft)
22.01.2015 21:00 0,5 C -0,6 C 91 % 1020,6 hPa 0,0 l/m 0 min 0 min 0 W/m 14,6 km/h (3 Bft)
22.01.2015 21:02 0,5 C -0,6 C 91 % 1020,7 hPa 0,0 l/m 0 min 0 min 0 W/m 14,6 km/h (3 Bft)
22.01.2015 21:04 0,5 C -0,6 C 91 % 1020,7 hPa 0,0 l/m 0 min 0 min 0 W/m 12,6 km/h (3 Bft)
22.01.2015 21:06 0,5 C -0,6 C 91 % 1020,7 hPa 0,0 l/m 0 min 0 min 0 W/m 14,6 km/h (3 Bft)
22.01.2015 21:08 0,5 C -0,6 C 91 % 1020,7 hPa 0,0 l/m 0 min 0 min 0 W/m 14,6 km/h (3 Bft)
22.01.2015 21:10 0,5 C -0,6 C 91 % 1020,7 hPa 0,0 l/m 0 min 0 min 0 W/m 14,6 km/h (3 Bft)
22.01.2015 21:12 0,5 C -0,6 C 91 % 1020,7 hPa 0,0 l/m 0 min 0 min 0 W/m 12,6 km/h (3 Bft)
22.01.2015 21:14 0,5 C -0,6 C 91 % 1020,7 hPa 0,0 l/m 0 min 0 min 0 W/m 12,6 km/h (3 Bft)
22.01.2015 21:16 0,5 C -0,6 C 91 % 1020,7 hPa 0,0 l/m 0 min 0 min 0 W/m 12,6 km/h (3 Bft)
22.01.2015 21:18 0,5 C -0,6 C 91 % 1020,7 hPa 0,0 l/m 0 min 0 min 0 W/m 12,6 km/h (3 Bft)
22.01.2015 21:20 0,5 C -0,6 C 91 % 1020,7 hPa 0,0 l/m 0 min 0 min 0 W/m 12,6 km/h (3 Bft)
22.01.2015 21:22 0,5 C -0,6 C 91 % 1020,8 hPa 0,0 l/m 0 min 0 min 0 W/m 14,6 km/h (3 Bft)
22.01.2015 21:24 0,5 C -0,6 C 91 % 1020,8 hPa 0,0 l/m 0 min 0 min 0 W/m 10,5 km/h (2 Bft)
22.01.2015 21:26 0,5 C -0,6 C 91 % 1020,9 hPa 0,0 l/m 0 min 0 min 0 W/m 12,6 km/h (3 Bft)
22.01.2015 21:28 0,5 C -0,6 C 91 % 1020,9 hPa 0,0 l/m 0 min 0 min 0 W/m 12,6 km/h (3 Bft)
22.01.2015 21:30 0,5 C -0,6 C 91 % 1020,9 hPa 0,0 l/m 0 min 0 min 0 W/m 14,6 km/h (3 Bft)
22.01.2015 21:32 0,5 C -0,6 C 91 % 1021,0 hPa 0,0 l/m 0 min 0 min 0 W/m 12,6 km/h (3 Bft)
22.01.2015 21:34 0,5 C -0,6 C 91 % 1020,9 hPa 0,0 l/m 0 min 0 min 0 W/m 14,6 km/h (3 Bft)
22.01.2015 21:36 0,5 C -0,6 C 91 % 1021,0 hPa 0,0 l/m 0 min 0 min 0 W/m 10,5 km/h (2 Bft)
22.01.2015 21:38 0,5 C -0,6 C 91 % 1020,9 hPa 0,0 l/m 0 min 0 min 0 W/m 10,5 km/h (2 Bft)
22.01.2015 21:40 0,5 C -0,6 C 91 % 1021,0 hPa 0,0 l/m 0 min 0 min 0 W/m 14,6 km/h (3 Bft)
22.01.2015 21:42 0,5 C -0,6 C 91 % 1021,0 hPa 0,0 l/m 0 min 0 min 0 W/m 12,6 km/h (3 Bft)
22.01.2015 21:44 0,5 C -0,6 C 91 % 1021,0 hPa 0,0 l/m 0 min 0 min 0 W/m 14,6 km/h (3 Bft)
22.01.2015 21:46 0,5 C -0,6 C 91 % 1021,1 hPa 0,0 l/m 0 min 0 min 0 W/m 14,6 km/h (3 Bft)
22.01.2015 21:48 0,5 C -0,6 C 91 % 1021,1 hPa 0,0 l/m 0 min 0 min 0 W/m 16,7 km/h (3 Bft)
22.01.2015 21:50 0,5 C -0,6 C 91 % 1021,1 hPa 0,0 l/m 0 min 0 min 0 W/m 14,6 km/h (3 Bft)
22.01.2015 21:52 0,5 C -0,6 C 91 % 1021,1 hPa 0,0 l/m 0 min 0 min 0 W/m 14,6 km/h (3 Bft)
22.01.2015 21:54 0,5 C -0,6 C 91 % 1021,1 hPa 0,0 l/m 0 min 0 min 0 W/m 12,6 km/h (3 Bft)
22.01.2015 21:56 0,5 C -0,6 C 91 % 1021,1 hPa 0,0 l/m 0 min 0 min 0 W/m 12,6 km/h (3 Bft)
22.01.2015 21:58 0,5 C -0,6 C 91 % 1021,1 hPa 0,0 l/m 0 min 0 min 0 W/m 12,6 km/h (3 Bft)
22.01.2015 22:00 0,5 C -0,6 C 91 % 1021,1 hPa 0,0 l/m 0 min 0 min 0 W/m 12,6 km/h (3 Bft)
22.01.2015 22:02 0,5 C -0,6 C 91 % 1021,1 hPa 0,0 l/m 0 min 0 min 0 W/m 12,6 km/h (3 Bft)
22.01.2015 22:04 0,5 C -0,6 C 91 % 1021,1 hPa 0,0 l/m 0 min 0 min 0 W/m 12,6 km/h (3 Bft)
22.01.2015 22:06 0,5 C -0,6 C 91 % 1021,2 hPa 0,0 l/m 0 min 0 min 0 W/m 10,5 km/h (2 Bft)
22.01.2015 22:08 0,5 C -0,6 C 91 % 1021,2 hPa 0,0 l/m 0 min 0 min 0 W/m 12,6 km/h (3 Bft)
22.01.2015 22:10 0,5 C -0,6 C 91 % 1021,2 hPa 0,0 l/m 0 min 0 min 0 W/m 14,6 km/h (3 Bft)
22.01.2015 22:12 0,5 C -0,6 C 91 % 1021,3 hPa 0,0 l/m 0 min 0 min 0 W/m 12,6 km/h (3 Bft)
22.01.2015 22:14 0,5 C -0,6 C 91 % 1021,3 hPa 0,0 l/m 0 min 0 min 0 W/m 14,6 km/h (3 Bft)
22.01.2015 22:16 0,5 C -0,6 C 91 % 1021,3 hPa 0,0 l/m 0 min 0 min 0 W/m 14,6 km/h (3 Bft)
22.01.2015 22:18 0,5 C -0,6 C 91 % 1021,4 hPa 0,0 l/m 0 min 0 min 0 W/m 14,6 km/h (3 Bft)
22.01.2015 22:20 0,5 C -0,6 C 91 % 1021,4 hPa 0,0 l/m 0 min 0 min 0 W/m 12,6 km/h (3 Bft)
22.01.2015 22:22 0,5 C -0,6 C 91 % 1021,5 hPa 0,0 l/m 0 min 0 min 0 W/m 12,6 km/h (3 Bft)
22.01.2015 22:24 0,5 C -0,6 C 91 % 1021,6 hPa 0,0 l/m 0 min 0 min 0 W/m 14,6 km/h (3 Bft)
22.01.2015 22:26 0,5 C -0,6 C 91 % 1021,5 hPa 0,0 l/m 0 min 0 min 0 W/m 10,5 km/h (2 Bft)
22.01.2015 22:28 0,5 C -0,6 C 91 % 1021,5 hPa 0,0 l/m 0 min 0 min 0 W/m 10,5 km/h (2 Bft)
22.01.2015 22:30 0,5 C -0,6 C 91 % 1021,5 hPa 0,0 l/m 0 min 0 min 0 W/m 12,6 km/h (3 Bft)
22.01.2015 22:32 0,5 C -0,6 C 91 % 1021,5 hPa 0,0 l/m 0 min 0 min 0 W/m 14,6 km/h (3 Bft)
22.01.2015 22:34 0,5 C -0,6 C 91 % 1021,5 hPa 0,0 l/m 0 min 0 min 0 W/m 16,7 km/h (3 Bft)
22.01.2015 22:36 0,5 C -0,6 C 91 % 1021,5 hPa 0,0 l/m 0 min 0 min 0 W/m 16,7 km/h (3 Bft)
22.01.2015 22:38 0,5 C -0,6 C 91 % 1021,6 hPa 0,0 l/m 0 min 0 min 0 W/m 14,6 km/h (3 Bft)
22.01.2015 22:40 0,5 C -0,6 C 91 % 1021,6 hPa 0,0 l/m 0 min 0 min 0 W/m 12,6 km/h (3 Bft)
22.01.2015 22:42 0,5 C -0,6 C 91 % 1021,6 hPa 0,0 l/m 0 min 0 min 0 W/m 12,6 km/h (3 Bft)
22.01.2015 22:44 0,5 C -0,6 C 91 % 1021,6 hPa 0,0 l/m 0 min 0 min 0 W/m 14,6 km/h (3 Bft)
22.01.2015 22:46 0,5 C -0,6 C 91 % 1021,7 hPa 0,0 l/m 0 min 0 min 0 W/m 18,8 km/h (3 Bft)
22.01.2015 22:48 0,5 C -0,6 C 91 % 1021,7 hPa 0,0 l/m 0 min 0 min 0 W/m 14,6 km/h (3 Bft)
22.01.2015 22:50 0,5 C -0,6 C 91 % 1021,8 hPa 0,0 l/m 0 min 0 min 0 W/m 18,8 km/h (3 Bft)
22.01.2015 22:52 0,5 C -0,6 C 91 % 1021,8 hPa 0,0 l/m 0 min 0 min 0 W/m 18,8 km/h (3 Bft)
22.01.2015 22:54 0,5 C -0,6 C 91 % 1021,8 hPa 0,0 l/m 0 min 0 min 0 W/m 16,7 km/h (3 Bft)
22.01.2015 22:56 0,5 C -0,6 C 91 % 1021,8 hPa 0,0 l/m 0 min 0 min 0 W/m 14,6 km/h (3 Bft)
22.01.2015 22:58 0,5 C -0,6 C 91 % 1021,8 hPa 0,0 l/m 0 min 0 min 0 W/m 16,7 km/h (3 Bft)
22.01.2015 23:00 0,5 C -0,6 C 91 % 1021,8 hPa 0,0 l/m 0 min 0 min 0 W/m 14,6 km/h (3 Bft)
22.01.2015 23:02 0,5 C -0,6 C 91 % 1021,8 hPa 0,0 l/m 0 min 0 min 0 W/m 12,6 km/h (3 Bft)
22.01.2015 23:04 0,5 C -0,6 C 91 % 1021,8 hPa 0,0 l/m 0 min 0 min 0 W/m 12,6 km/h (3 Bft)
22.01.2015 23:06 0,5 C -0,6 C 91 % 1021,8 hPa 0,0 l/m 0 min 0 min 0 W/m 14,6 km/h (3 Bft)
22.01.2015 23:08 0,5 C -0,6 C 91 % 1021,9 hPa 0,0 l/m 0 min 0 min 0 W/m 16,7 km/h (3 Bft)
22.01.2015 23:10 0,5 C -0,6 C 91 % 1021,8 hPa 0,0 l/m 0 min 0 min 0 W/m 14,6 km/h (3 Bft)
22.01.2015 23:12 0,5 C -0,6 C 91 % 1021,9 hPa 0,0 l/m 0 min 0 min 0 W/m 10,5 km/h (2 Bft)
22.01.2015 23:14 0,5 C -0,6 C 91 % 1021,8 hPa 0,0 l/m 0 min 0 min 0 W/m 12,6 km/h (3 Bft)
22.01.2015 23:16 0,5 C -0,6 C 91 % 1021,8 hPa 0,0 l/m 0 min 0 min 0 W/m 14,6 km/h (3 Bft)
22.01.2015 23:18 0,5 C -0,6 C 91 % 1021,9 hPa 0,0 l/m 0 min 0 min 0 W/m 10,5 km/h (2 Bft)
22.01.2015 23:20 0,5 C -0,6 C 91 % 1021,8 hPa 0,0 l/m 0 min 0 min 0 W/m 16,7 km/h (3 Bft)
22.01.2015 23:22 0,5 C -0,6 C 91 % 1021,8 hPa 0,0 l/m 0 min 0 min 0 W/m 14,6 km/h (3 Bft)
22.01.2015 23:24 0,5 C -0,6 C 91 % 1021,8 hPa 0,0 l/m 0 min 0 min 0 W/m 12,6 km/h (3 Bft)
22.01.2015 23:26 0,5 C -0,6 C 91 % 1021,8 hPa 0,0 l/m 0 min 0 min 0 W/m 16,7 km/h (3 Bft)
22.01.2015 23:28 0,5 C -0,6 C 91 % 1021,8 hPa 0,0 l/m 0 min 0 min 0 W/m 14,6 km/h (3 Bft)
22.01.2015 23:30 0,5 C -0,6 C 91 % 1021,8 hPa 0,0 l/m 0 min 0 min 0 W/m 10,5 km/h (2 Bft)
22.01.2015 23:32 0,5 C -0,6 C 91 % 1021,9 hPa 0,0 l/m 0 min 0 min 0 W/m 16,7 km/h (3 Bft)
22.01.2015 23:34 0,5 C -0,6 C 90 % 1021,9 hPa 0,0 l/m 0 min 0 min 0 W/m 14,6 km/h (3 Bft)
22.01.2015 23:36 0,5 C -0,6 C 91 % 1021,9 hPa 0,0 l/m 0 min 0 min 0 W/m 10,5 km/h (2 Bft)
22.01.2015 23:38 0,5 C -0,6 C 91 % 1022,0 hPa 0,0 l/m 0 min 0 min 0 W/m 10,5 km/h (2 Bft)
22.01.2015 23:40 0,5 C -0,6 C 91 % 1022,0 hPa 0,0 l/m 0 min 0 min 0 W/m 14,6 km/h (3 Bft)
22.01.2015 23:42 0,5 C -0,6 C 90 % 1022,0 hPa 0,0 l/m 0 min 0 min 0 W/m 8,4 km/h (2 Bft)
22.01.2015 23:44 0,5 C -0,6 C 90 % 1021,9 hPa 0,0 l/m 0 min 0 min 0 W/m 14,6 km/h (3 Bft)
22.01.2015 23:46 0,5 C -0,6 C 90 % 1021,9 hPa 0,0 l/m 0 min 0 min 0 W/m 12,6 km/h (3 Bft)
22.01.2015 23:48 0,5 C -0,6 C 90 % 1021,9 hPa 0,0 l/m 0 min 0 min 0 W/m 12,6 km/h (3 Bft)
22.01.2015 23:50 0,5 C -0,6 C 90 % 1021,9 hPa 0,0 l/m 0 min 0 min 0 W/m 10,5 km/h (2 Bft)
22.01.2015 23:52 0,5 C -0,6 C 90 % 1021,9 hPa 0,0 l/m 0 min 0 min 0 W/m 12,6 km/h (3 Bft)
22.01.2015 23:54 0,5 C -0,6 C 90 % 1022,0 hPa 0,0 l/m 0 min 0 min 0 W/m 14,6 km/h (3 Bft)
22.01.2015 23:56 0,5 C -0,6 C 90 % 1022,0 hPa 0,0 l/m 0 min 0 min 0 W/m 10,5 km/h (2 Bft)
22.01.2015 23:58 0,5 C -0,6 C 90 % 1022,1 hPa 0,0 l/m 0 min 0 min 0 W/m 10,5 km/h (2 Bft)
_ Min-Zeit 07:16 03:42 12:28 00:00 - - - - 06:54
Minimum _ -0,7 C -1,7 C 83 % 1013,0 hPa - - - - 4,2 km/h (1 Bft)
_ Max-Zeit 12:24 11:56 20:52 23:58 00:00 00:00 00:00 12:07 09:24
Maximum _ 0,9 C 0,6 C 91 % 1022,1 hPa 0,0 l/m 0 min 0 min 105 W/m 29,3 km/h
NO (5 Bft)
Durchschnitt _ 0,4 C -0,5 C 87 % 1016,8 hPa #0,0 l/m #0 min. #0 min. 42 W/m 14,4 km/h (3 Bft)
© 2015 W. Hausmann